<?xml version="1.0" encoding="UTF-8" standalone="no" ?>
<gpx xmlns="http://www.topografix.com/GPX/1/1" xmlns:xsi="http://www.w3.org/2001/XMLSchema-instance" xsi:schemaLocation="http://www.topografix.com/GPX/1/1 http://www.topografix.com/GPX/1/1/gpx.xsd" version="1.1" creator="VisuGPX - https://www.visugpx.com">
  <metadata>
    <name>Tourliac 44k</name>
  </metadata>
  <trk>
    <name><![CDATA[Tourliac 44k]]></name>
    <trkseg>
      <trkpt lat="44.6243" lon="0.80576">
        <ele>168.4</ele>
      </trkpt>
      <trkpt lat="44.62431" lon="0.80584">
        <ele>168.5</ele>
      </trkpt>
      <trkpt lat="44.6243" lon="0.80576">
        <ele>168.4</ele>
      </trkpt>
      <trkpt lat="44.62423" lon="0.80555">
        <ele>168</ele>
        <extensions>
          <visugpx:TrkExtension xmlns:visugpx="https://www.visugpx.com/editgpx/">
            <visugpx:node>1</visugpx:node>
            </visugpx:TrkExtension>
        </extensions>
      </trkpt>
      <trkpt lat="44.6242" lon="0.80565">
        <ele>168</ele>
        <time>2022-10-05T13:46:18.366Z</time>
      </trkpt>
      <trkpt lat="44.62407" lon="0.80585">
        <ele>167.7</ele>
        <time>2022-10-05T13:46:20.910Z</time>
      </trkpt>
      <trkpt lat="44.62388" lon="0.80602">
        <ele>167.6</ele>
        <time>2022-10-05T13:46:24.611Z</time>
        <extensions>
          <visugpx:TrkExtension xmlns:visugpx="https://www.visugpx.com/editgpx/">
            <visugpx:node>2</visugpx:node>
            </visugpx:TrkExtension>
        </extensions>
      </trkpt>
      <trkpt lat="44.62301" lon="0.80713">
        <ele>166.8</ele>
        <time>2022-10-05T13:46:43.450Z</time>
      </trkpt>
      <trkpt lat="44.622" lon="0.80861">
        <ele>155.4</ele>
        <time>2022-10-05T13:46:56.329Z</time>
      </trkpt>
      <trkpt lat="44.62183" lon="0.80879">
        <ele>153.5</ele>
        <time>2022-10-05T13:46:58.208Z</time>
      </trkpt>
      <trkpt lat="44.62144" lon="0.809">
        <ele>152.5</ele>
        <time>2022-10-05T13:47:03.202Z</time>
      </trkpt>
      <trkpt lat="44.62097" lon="0.80918">
        <ele>153.6</ele>
        <time>2022-10-05T13:47:14.063Z</time>
      </trkpt>
      <trkpt lat="44.62057" lon="0.80927">
        <ele>156.3</ele>
        <time>2022-10-05T13:47:28.124Z</time>
      </trkpt>
      <trkpt lat="44.62035" lon="0.80939">
        <ele>156.4</ele>
        <time>2022-10-05T13:47:32.466Z</time>
      </trkpt>
      <trkpt lat="44.62013" lon="0.80957">
        <ele>154.6</ele>
        <time>2022-10-05T13:47:34.713Z</time>
      </trkpt>
      <trkpt lat="44.61952" lon="0.81047">
        <ele>156.2</ele>
        <time>2022-10-05T13:47:53.463Z</time>
      </trkpt>
      <trkpt lat="44.61927" lon="0.81061">
        <ele>157.1</ele>
        <time>2022-10-05T13:48:00.325Z</time>
      </trkpt>
      <trkpt lat="44.61917" lon="0.81064">
        <ele>157</ele>
        <time>2022-10-05T13:48:01.778Z</time>
      </trkpt>
      <trkpt lat="44.61897" lon="0.8107">
        <ele>157</ele>
        <time>2022-10-05T13:48:05.395Z</time>
      </trkpt>
      <trkpt lat="44.6185" lon="0.81052">
        <ele>156.4</ele>
        <time>2022-10-05T13:48:12.092Z</time>
      </trkpt>
      <trkpt lat="44.61828" lon="0.81056">
        <ele>155.2</ele>
        <time>2022-10-05T13:48:14.075Z</time>
      </trkpt>
      <trkpt lat="44.61783" lon="0.81079">
        <ele>148.7</ele>
        <time>2022-10-05T13:48:18.300Z</time>
      </trkpt>
      <trkpt lat="44.61763" lon="0.81096">
        <ele>145.9</ele>
        <time>2022-10-05T13:48:20.363Z</time>
      </trkpt>
      <trkpt lat="44.61732" lon="0.81086">
        <ele>142.1</ele>
        <time>2022-10-05T13:48:23.170Z</time>
      </trkpt>
      <trkpt lat="44.61683" lon="0.8104">
        <ele>137.8</ele>
        <time>2022-10-05T13:48:28.371Z</time>
      </trkpt>
      <trkpt lat="44.61637" lon="0.80978">
        <ele>131.6</ele>
        <time>2022-10-05T13:48:33.997Z</time>
      </trkpt>
      <trkpt lat="44.6157" lon="0.80948">
        <ele>122.5</ele>
        <time>2022-10-05T13:48:40.203Z</time>
      </trkpt>
      <trkpt lat="44.61524" lon="0.8087">
        <ele>124.8</ele>
        <time>2022-10-05T13:48:58.218Z</time>
      </trkpt>
      <trkpt lat="44.61487" lon="0.80811">
        <ele>126.8</ele>
        <time>2022-10-05T13:49:12.933Z</time>
      </trkpt>
      <trkpt lat="44.61435" lon="0.80758">
        <ele>128.1</ele>
        <time>2022-10-05T13:49:26.879Z</time>
      </trkpt>
      <trkpt lat="44.61397" lon="0.80744">
        <ele>131.2</ele>
        <time>2022-10-05T13:49:41.866Z</time>
      </trkpt>
      <trkpt lat="44.61296" lon="0.80792">
        <ele>141.4</ele>
        <time>2022-10-05T13:50:28.914Z</time>
      </trkpt>
      <trkpt lat="44.61267" lon="0.80778">
        <ele>143.6</ele>
        <time>2022-10-05T13:50:39.972Z</time>
      </trkpt>
      <trkpt lat="44.61149" lon="0.80651">
        <ele>155.6</ele>
        <time>2022-10-05T13:51:37.527Z</time>
        <extensions>
          <visugpx:TrkExtension xmlns:visugpx="https://www.visugpx.com/editgpx/">
            <visugpx:node>3</visugpx:node>
            </visugpx:TrkExtension>
        </extensions>
      </trkpt>
      <trkpt lat="44.6112" lon="0.8062">
        <ele>156.2</ele>
        <time>2022-10-05T13:51:45.116Z</time>
      </trkpt>
      <trkpt lat="44.61079" lon="0.80563">
        <ele>154</ele>
        <time>2022-10-05T13:51:51.067Z</time>
      </trkpt>
      <trkpt lat="44.61073" lon="0.80562">
        <ele>153.5</ele>
        <time>2022-10-05T13:51:51.600Z</time>
        <extensions>
          <visugpx:TrkExtension xmlns:visugpx="https://www.visugpx.com/editgpx/">
            <visugpx:node>4</visugpx:node>
            </visugpx:TrkExtension>
        </extensions>
      </trkpt>
      <trkpt lat="44.60866" lon="0.80548">
        <ele>133.4</ele>
        <time>2022-10-05T13:52:09.889Z</time>
      </trkpt>
      <trkpt lat="44.60716" lon="0.8044">
        <ele>149.7</ele>
        <time>2022-10-05T13:53:24.995Z</time>
      </trkpt>
      <trkpt lat="44.60618" lon="0.80374">
        <ele>164.2</ele>
        <time>2022-10-05T13:54:39.112Z</time>
        <extensions>
          <visugpx:TrkExtension xmlns:visugpx="https://www.visugpx.com/editgpx/">
            <visugpx:node>5</visugpx:node>
            </visugpx:TrkExtension>
        </extensions>
      </trkpt>
      <trkpt lat="44.60591" lon="0.80356">
        <ele>166.6</ele>
        <time>2022-10-05T13:54:50.644Z</time>
      </trkpt>
      <trkpt lat="44.6059" lon="0.80358">
        <ele>166.6</ele>
        <time>2022-10-05T13:54:50.951Z</time>
        <extensions>
          <visugpx:TrkExtension xmlns:visugpx="https://www.visugpx.com/editgpx/">
            <visugpx:node>6</visugpx:node>
            </visugpx:TrkExtension>
        </extensions>
      </trkpt>
      <trkpt lat="44.60555" lon="0.80422">
        <ele>164.7</ele>
        <time>2022-10-05T13:54:57.184Z</time>
      </trkpt>
      <trkpt lat="44.60546" lon="0.80444">
        <ele>165.1</ele>
        <time>2022-10-05T13:55:01.191Z</time>
      </trkpt>
      <trkpt lat="44.6054" lon="0.8047">
        <ele>165.4</ele>
        <time>2022-10-05T13:55:05.198Z</time>
      </trkpt>
      <trkpt lat="44.60538" lon="0.80497">
        <ele>166.1</ele>
        <time>2022-10-05T13:55:10.313Z</time>
      </trkpt>
      <trkpt lat="44.60538" lon="0.80498">
        <ele>166.1</ele>
        <time>2022-10-05T13:55:10.439Z</time>
        <extensions>
          <visugpx:TrkExtension xmlns:visugpx="https://www.visugpx.com/editgpx/">
            <visugpx:node>7</visugpx:node>
            </visugpx:TrkExtension>
        </extensions>
      </trkpt>
      <trkpt lat="44.60538" lon="0.80497">
        <ele>166.1</ele>
        <time>2022-10-05T13:55:10.565Z</time>
      </trkpt>
      <trkpt lat="44.60516" lon="0.80504">
        <ele>168.7</ele>
        <time>2022-10-05T13:55:22.751Z</time>
      </trkpt>
      <trkpt lat="44.60488" lon="0.80485">
        <ele>170.6</ele>
        <time>2022-10-05T13:55:33.122Z</time>
      </trkpt>
      <trkpt lat="44.60467" lon="0.80471">
        <ele>171</ele>
        <time>2022-10-05T13:55:38.002Z</time>
      </trkpt>
      <trkpt lat="44.60462" lon="0.80467">
        <ele>170.9</ele>
        <time>2022-10-05T13:55:38.745Z</time>
      </trkpt>
      <trkpt lat="44.60467" lon="0.80471">
        <ele>171</ele>
        <time>2022-10-05T13:55:39.955Z</time>
      </trkpt>
      <trkpt lat="44.60462" lon="0.80467">
        <ele>170.9</ele>
        <time>2022-10-05T13:55:40.697Z</time>
        <extensions>
          <visugpx:TrkExtension xmlns:visugpx="https://www.visugpx.com/editgpx/">
            <visugpx:node>8</visugpx:node>
            </visugpx:TrkExtension>
        </extensions>
      </trkpt>
      <trkpt lat="44.60529" lon="0.80277">
        <ele>170</ele>
        <time>2022-10-05T13:56:05.160Z</time>
      </trkpt>
      <trkpt lat="44.60528" lon="0.80279">
        <ele>170</ele>
        <time>2022-10-05T13:56:05.467Z</time>
      </trkpt>
      <trkpt lat="44.60526" lon="0.80284">
        <ele>169.8</ele>
        <time>2022-10-05T13:56:05.848Z</time>
        <extensions>
          <visugpx:TrkExtension xmlns:visugpx="https://www.visugpx.com/editgpx/">
            <visugpx:node>9</visugpx:node>
            </visugpx:TrkExtension>
        </extensions>
      </trkpt>
      <trkpt lat="44.60509" lon="0.8032">
        <ele>169.2</ele>
        <time>2022-10-05T13:56:09.718Z</time>
      </trkpt>
      <trkpt lat="44.60476" lon="0.80408">
        <ele>169.9</ele>
        <time>2022-10-05T13:56:23.488Z</time>
      </trkpt>
      <trkpt lat="44.60465" lon="0.80443">
        <ele>170.7</ele>
        <time>2022-10-05T13:56:30.078Z</time>
      </trkpt>
      <trkpt lat="44.60457" lon="0.80463">
        <ele>170.8</ele>
        <time>2022-10-05T13:56:33.138Z</time>
      </trkpt>
      <trkpt lat="44.60455" lon="0.80462">
        <ele>170.8</ele>
        <time>2022-10-05T13:56:33.514Z</time>
        <extensions>
          <visugpx:TrkExtension xmlns:visugpx="https://www.visugpx.com/editgpx/">
            <visugpx:node>10</visugpx:node>
            </visugpx:TrkExtension>
        </extensions>
      </trkpt>
      <trkpt lat="44.60451" lon="0.8046">
        <ele>170.7</ele>
        <time>2022-10-05T13:56:34.024Z</time>
      </trkpt>
      <trkpt lat="44.6042" lon="0.80422">
        <ele>165.9</ele>
        <time>2022-10-05T13:56:37.655Z</time>
      </trkpt>
      <trkpt lat="44.60392" lon="0.80418">
        <ele>164.2</ele>
        <time>2022-10-05T13:56:40.043Z</time>
      </trkpt>
      <trkpt lat="44.60214" lon="0.80439">
        <ele>156.2</ele>
        <time>2022-10-05T13:56:57.356Z</time>
      </trkpt>
      <trkpt lat="44.60061" lon="0.80469">
        <ele>155.7</ele>
        <time>2022-10-05T13:57:23.386Z</time>
      </trkpt>
      <trkpt lat="44.60032" lon="0.80464">
        <ele>156</ele>
        <time>2022-10-05T13:57:29.089Z</time>
      </trkpt>
      <trkpt lat="44.59995" lon="0.80445">
        <ele>155.4</ele>
        <time>2022-10-05T13:57:34.309Z</time>
      </trkpt>
      <trkpt lat="44.59979" lon="0.80442">
        <ele>156.5</ele>
        <time>2022-10-05T13:57:39.974Z</time>
        <extensions>
          <visugpx:TrkExtension xmlns:visugpx="https://www.visugpx.com/editgpx/">
            <visugpx:node>11</visugpx:node>
            </visugpx:TrkExtension>
        </extensions>
      </trkpt>
      <trkpt lat="44.59977" lon="0.80441">
        <ele>156.6</ele>
        <time>2022-10-05T13:57:40.619Z</time>
      </trkpt>
      <trkpt lat="44.59959" lon="0.80456">
        <ele>157</ele>
        <time>2022-10-05T13:57:45.106Z</time>
      </trkpt>
      <trkpt lat="44.59884" lon="0.80586">
        <ele>150.4</ele>
        <time>2022-10-05T13:57:55.637Z</time>
      </trkpt>
      <trkpt lat="44.59782" lon="0.80735">
        <ele>140.5</ele>
        <time>2022-10-05T13:58:08.625Z</time>
      </trkpt>
      <trkpt lat="44.5977" lon="0.80745">
        <ele>139.8</ele>
        <time>2022-10-05T13:58:09.914Z</time>
      </trkpt>
      <trkpt lat="44.59771" lon="0.80752">
        <ele>139.6</ele>
        <time>2022-10-05T13:58:10.432Z</time>
        <extensions>
          <visugpx:TrkExtension xmlns:visugpx="https://www.visugpx.com/editgpx/">
            <visugpx:node>12</visugpx:node>
            </visugpx:TrkExtension>
        </extensions>
      </trkpt>
      <trkpt lat="44.59774" lon="0.80763">
        <ele>139</ele>
        <time>2022-10-05T13:58:11.173Z</time>
      </trkpt>
      <trkpt lat="44.59743" lon="0.80882">
        <ele>134</ele>
        <time>2022-10-05T13:58:19.147Z</time>
      </trkpt>
      <trkpt lat="44.59735" lon="0.80943">
        <ele>133.4</ele>
        <time>2022-10-05T13:58:25.121Z</time>
      </trkpt>
      <trkpt lat="44.59723" lon="0.80972">
        <ele>134</ele>
        <time>2022-10-05T13:58:30.608Z</time>
      </trkpt>
      <trkpt lat="44.59707" lon="0.81044">
        <ele>134.2</ele>
        <time>2022-10-05T13:58:40.441Z</time>
      </trkpt>
      <trkpt lat="44.59691" lon="0.81091">
        <ele>135.4</ele>
        <time>2022-10-05T13:58:49.764Z</time>
      </trkpt>
      <trkpt lat="44.59676" lon="0.8113">
        <ele>135.1</ele>
        <time>2022-10-05T13:58:54.266Z</time>
      </trkpt>
      <trkpt lat="44.59665" lon="0.81147">
        <ele>134.4</ele>
        <time>2022-10-05T13:58:55.881Z</time>
      </trkpt>
      <trkpt lat="44.59654" lon="0.81168">
        <ele>133.4</ele>
        <time>2022-10-05T13:58:57.543Z</time>
      </trkpt>
      <trkpt lat="44.59594" lon="0.81282">
        <ele>129.9</ele>
        <time>2022-10-05T13:59:08.316Z</time>
      </trkpt>
      <trkpt lat="44.59582" lon="0.81319">
        <ele>126.3</ele>
        <time>2022-10-05T13:59:10.871Z</time>
      </trkpt>
      <trkpt lat="44.59583" lon="0.8137">
        <ele>119</ele>
        <time>2022-10-05T13:59:14.077Z</time>
      </trkpt>
      <trkpt lat="44.59571" lon="0.81428">
        <ele>113.8</ele>
        <time>2022-10-05T13:59:17.873Z</time>
      </trkpt>
      <trkpt lat="44.59541" lon="0.81535">
        <ele>111.1</ele>
        <time>2022-10-05T13:59:26.763Z</time>
      </trkpt>
      <trkpt lat="44.59523" lon="0.8161">
        <ele>105.1</ele>
        <time>2022-10-05T13:59:31.737Z</time>
      </trkpt>
      <trkpt lat="44.59516" lon="0.8165">
        <ele>103.8</ele>
        <time>2022-10-05T13:59:34.592Z</time>
      </trkpt>
      <trkpt lat="44.59514" lon="0.81663">
        <ele>103.6</ele>
        <time>2022-10-05T13:59:35.761Z</time>
      </trkpt>
      <trkpt lat="44.59512" lon="0.81712">
        <ele>103</ele>
        <time>2022-10-05T13:59:40.283Z</time>
      </trkpt>
      <trkpt lat="44.59502" lon="0.81737">
        <ele>102.5</ele>
        <time>2022-10-05T13:59:42.710Z</time>
      </trkpt>
      <trkpt lat="44.59489" lon="0.81756">
        <ele>102.5</ele>
        <time>2022-10-05T13:59:46.028Z</time>
      </trkpt>
      <trkpt lat="44.59477" lon="0.81776">
        <ele>103</ele>
        <time>2022-10-05T13:59:50.396Z</time>
      </trkpt>
      <trkpt lat="44.59469" lon="0.81777">
        <ele>102.9</ele>
        <time>2022-10-05T13:59:51.498Z</time>
        <extensions>
          <visugpx:TrkExtension xmlns:visugpx="https://www.visugpx.com/editgpx/">
            <visugpx:node>13</visugpx:node>
            </visugpx:TrkExtension>
        </extensions>
      </trkpt>
      <trkpt lat="44.59464" lon="0.81778">
        <ele>102.7</ele>
        <time>2022-10-05T13:59:52.012Z</time>
      </trkpt>
      <trkpt lat="44.59456" lon="0.81782">
        <ele>102.4</ele>
        <time>2022-10-05T13:59:52.912Z</time>
      </trkpt>
      <trkpt lat="44.59438" lon="0.81796">
        <ele>102</ele>
        <time>2022-10-05T13:59:55.503Z</time>
      </trkpt>
      <trkpt lat="44.59429" lon="0.81812">
        <ele>102.2</ele>
        <time>2022-10-05T13:59:58.441Z</time>
      </trkpt>
      <trkpt lat="44.59421" lon="0.81826">
        <ele>102.7</ele>
        <time>2022-10-05T14:00:01.964Z</time>
      </trkpt>
      <trkpt lat="44.59411" lon="0.81852">
        <ele>104.3</ele>
        <time>2022-10-05T14:00:09.810Z</time>
      </trkpt>
      <trkpt lat="44.594" lon="0.81876">
        <ele>105.8</ele>
        <time>2022-10-05T14:00:17.256Z</time>
      </trkpt>
      <trkpt lat="44.59376" lon="0.81909">
        <ele>108.9</ele>
        <time>2022-10-05T14:00:31.624Z</time>
      </trkpt>
      <trkpt lat="44.59326" lon="0.81961">
        <ele>114.6</ele>
        <time>2022-10-05T14:00:58.076Z</time>
      </trkpt>
      <trkpt lat="44.59299" lon="0.81974">
        <ele>114.8</ele>
        <time>2022-10-05T14:01:03.470Z</time>
      </trkpt>
      <trkpt lat="44.59235" lon="0.82001">
        <ele>115.6</ele>
        <time>2022-10-05T14:01:16.744Z</time>
      </trkpt>
      <trkpt lat="44.59178" lon="0.82044">
        <ele>117.6</ele>
        <time>2022-10-05T14:01:32.706Z</time>
      </trkpt>
      <trkpt lat="44.59173" lon="0.8205">
        <ele>117.8</ele>
        <time>2022-10-05T14:01:34.319Z</time>
        <extensions>
          <visugpx:TrkExtension xmlns:visugpx="https://www.visugpx.com/editgpx/">
            <visugpx:node>14</visugpx:node>
            </visugpx:TrkExtension>
        </extensions>
      </trkpt>
      <trkpt lat="44.59168" lon="0.82055">
        <ele>118</ele>
        <time>2022-10-05T14:01:35.866Z</time>
      </trkpt>
      <trkpt lat="44.59166" lon="0.82067">
        <ele>118</ele>
        <time>2022-10-05T14:01:37.418Z</time>
      </trkpt>
      <trkpt lat="44.59171" lon="0.8208">
        <ele>118</ele>
        <time>2022-10-05T14:01:39.279Z</time>
      </trkpt>
      <trkpt lat="44.59194" lon="0.82107">
        <ele>117.1</ele>
        <time>2022-10-05T14:01:42.635Z</time>
      </trkpt>
      <trkpt lat="44.59199" lon="0.82117">
        <ele>116.8</ele>
        <time>2022-10-05T14:01:43.565Z</time>
      </trkpt>
      <trkpt lat="44.59197" lon="0.82127">
        <ele>116.4</ele>
        <time>2022-10-05T14:01:44.226Z</time>
      </trkpt>
      <trkpt lat="44.59177" lon="0.82168">
        <ele>116.3</ele>
        <time>2022-10-05T14:01:50.225Z</time>
      </trkpt>
      <trkpt lat="44.59133" lon="0.82254">
        <ele>120.1</ele>
        <time>2022-10-05T14:02:13.604Z</time>
      </trkpt>
      <trkpt lat="44.59106" lon="0.82291">
        <ele>119.5</ele>
        <time>2022-10-05T14:02:18.562Z</time>
      </trkpt>
      <trkpt lat="44.59088" lon="0.82326">
        <ele>118.6</ele>
        <time>2022-10-05T14:02:22.030Z</time>
      </trkpt>
      <trkpt lat="44.59048" lon="0.82402">
        <ele>122</ele>
        <time>2022-10-05T14:02:42.913Z</time>
      </trkpt>
      <trkpt lat="44.59047" lon="0.82411">
        <ele>122.8</ele>
        <time>2022-10-05T14:02:46.774Z</time>
      </trkpt>
      <trkpt lat="44.59053" lon="0.82428">
        <ele>123.5</ele>
        <time>2022-10-05T14:02:51.002Z</time>
      </trkpt>
      <trkpt lat="44.59056" lon="0.82456">
        <ele>123.5</ele>
        <time>2022-10-05T14:02:54.568Z</time>
      </trkpt>
      <trkpt lat="44.59057" lon="0.82469">
        <ele>123</ele>
        <time>2022-10-05T14:02:55.403Z</time>
      </trkpt>
      <trkpt lat="44.5905" lon="0.82473">
        <ele>123.2</ele>
        <time>2022-10-05T14:02:57.167Z</time>
      </trkpt>
      <trkpt lat="44.58988" lon="0.82453">
        <ele>126.3</ele>
        <time>2022-10-05T14:03:16.677Z</time>
      </trkpt>
      <trkpt lat="44.58943" lon="0.82432">
        <ele>127.6</ele>
        <time>2022-10-05T14:03:27.875Z</time>
      </trkpt>
      <trkpt lat="44.58933" lon="0.82428">
        <ele>128.1</ele>
        <time>2022-10-05T14:03:31.051Z</time>
        <extensions>
          <visugpx:TrkExtension xmlns:visugpx="https://www.visugpx.com/editgpx/">
            <visugpx:node>15</visugpx:node>
            </visugpx:TrkExtension>
        </extensions>
      </trkpt>
      <trkpt lat="44.58943" lon="0.82432">
        <ele>127.6</ele>
        <time>2022-10-05T14:03:32.029Z</time>
      </trkpt>
      <trkpt lat="44.5891" lon="0.82557">
        <ele>128.2</ele>
        <time>2022-10-05T14:03:49.851Z</time>
      </trkpt>
      <trkpt lat="44.58907" lon="0.82573">
        <ele>128.3</ele>
        <time>2022-10-05T14:03:52.110Z</time>
      </trkpt>
      <trkpt lat="44.58913" lon="0.82582">
        <ele>128.1</ele>
        <time>2022-10-05T14:03:53.174Z</time>
      </trkpt>
      <trkpt lat="44.58961" lon="0.82608">
        <ele>126.7</ele>
        <time>2022-10-05T14:03:59.108Z</time>
      </trkpt>
      <trkpt lat="44.58979" lon="0.82623">
        <ele>125.4</ele>
        <time>2022-10-05T14:04:00.860Z</time>
      </trkpt>
      <trkpt lat="44.58983" lon="0.82649">
        <ele>125.6</ele>
        <time>2022-10-05T14:04:04.569Z</time>
      </trkpt>
      <trkpt lat="44.58977" lon="0.82726">
        <ele>128.5</ele>
        <time>2022-10-05T14:04:21.920Z</time>
      </trkpt>
      <trkpt lat="44.5899" lon="0.82773">
        <ele>127.1</ele>
        <time>2022-10-05T14:04:25.593Z</time>
      </trkpt>
      <trkpt lat="44.59014" lon="0.82784">
        <ele>125</ele>
        <time>2022-10-05T14:04:27.821Z</time>
      </trkpt>
      <trkpt lat="44.59042" lon="0.82792">
        <ele>122.5</ele>
        <time>2022-10-05T14:04:30.343Z</time>
      </trkpt>
      <trkpt lat="44.59045" lon="0.82802">
        <ele>122.1</ele>
        <time>2022-10-05T14:04:31.047Z</time>
      </trkpt>
      <trkpt lat="44.59026" lon="0.82888">
        <ele>122.2</ele>
        <time>2022-10-05T14:04:42.552Z</time>
      </trkpt>
      <trkpt lat="44.5902" lon="0.82902">
        <ele>121.6</ele>
        <time>2022-10-05T14:04:43.614Z</time>
      </trkpt>
      <trkpt lat="44.59" lon="0.82923">
        <ele>121.5</ele>
        <time>2022-10-05T14:04:47.775Z</time>
      </trkpt>
      <trkpt lat="44.58978" lon="0.82936">
        <ele>121.4</ele>
        <time>2022-10-05T14:04:51.742Z</time>
      </trkpt>
      <trkpt lat="44.58949" lon="0.82947">
        <ele>121.7</ele>
        <time>2022-10-05T14:04:57.589Z</time>
      </trkpt>
      <trkpt lat="44.58907" lon="0.82996">
        <ele>123.5</ele>
        <time>2022-10-05T14:05:11.423Z</time>
      </trkpt>
      <trkpt lat="44.58893" lon="0.83021">
        <ele>127</ele>
        <time>2022-10-05T14:05:26.873Z</time>
      </trkpt>
      <trkpt lat="44.58877" lon="0.83078">
        <ele>130.7</ele>
        <time>2022-10-05T14:05:44.351Z</time>
      </trkpt>
      <trkpt lat="44.58704" lon="0.83233">
        <ele>139.8</ele>
        <time>2022-10-05T14:06:45.467Z</time>
      </trkpt>
      <trkpt lat="44.58676" lon="0.83275">
        <ele>140.4</ele>
        <time>2022-10-05T14:06:53.836Z</time>
      </trkpt>
      <trkpt lat="44.58669" lon="0.833">
        <ele>141.6</ele>
        <time>2022-10-05T14:07:00.290Z</time>
      </trkpt>
      <trkpt lat="44.58686" lon="0.83317">
        <ele>141.4</ele>
        <time>2022-10-05T14:07:03.264Z</time>
      </trkpt>
      <trkpt lat="44.58709" lon="0.83331">
        <ele>140.8</ele>
        <time>2022-10-05T14:07:06.261Z</time>
      </trkpt>
      <trkpt lat="44.58716" lon="0.8334">
        <ele>140.6</ele>
        <time>2022-10-05T14:07:07.434Z</time>
      </trkpt>
      <trkpt lat="44.5872" lon="0.83351">
        <ele>140.7</ele>
        <time>2022-10-05T14:07:09.170Z</time>
      </trkpt>
      <trkpt lat="44.58721" lon="0.83372">
        <ele>140.3</ele>
        <time>2022-10-05T14:07:10.909Z</time>
      </trkpt>
      <trkpt lat="44.58727" lon="0.83384">
        <ele>139.1</ele>
        <time>2022-10-05T14:07:11.831Z</time>
      </trkpt>
      <trkpt lat="44.58762" lon="0.83421">
        <ele>134.3</ele>
        <time>2022-10-05T14:07:15.697Z</time>
      </trkpt>
      <trkpt lat="44.58791" lon="0.83449">
        <ele>131.2</ele>
        <time>2022-10-05T14:07:18.803Z</time>
      </trkpt>
      <trkpt lat="44.58805" lon="0.83475">
        <ele>128.8</ele>
        <time>2022-10-05T14:07:20.851Z</time>
      </trkpt>
      <trkpt lat="44.58807" lon="0.8349">
        <ele>127.4</ele>
        <time>2022-10-05T14:07:21.810Z</time>
      </trkpt>
      <trkpt lat="44.58805" lon="0.83503">
        <ele>126.6</ele>
        <time>2022-10-05T14:07:22.646Z</time>
      </trkpt>
      <trkpt lat="44.58798" lon="0.83517">
        <ele>125.2</ele>
        <time>2022-10-05T14:07:23.721Z</time>
      </trkpt>
      <trkpt lat="44.588" lon="0.83545">
        <ele>123.6</ele>
        <time>2022-10-05T14:07:25.490Z</time>
      </trkpt>
      <trkpt lat="44.58811" lon="0.83609">
        <ele>123</ele>
        <time>2022-10-05T14:07:31.897Z</time>
        <extensions>
          <visugpx:TrkExtension xmlns:visugpx="https://www.visugpx.com/editgpx/">
            <visugpx:node>16</visugpx:node>
            </visugpx:TrkExtension>
        </extensions>
      </trkpt>
      <trkpt lat="44.58814" lon="0.83626">
        <ele>124.6</ele>
        <time>2022-10-05T14:07:39.815Z</time>
      </trkpt>
      <trkpt lat="44.58779" lon="0.83637">
        <ele>124.9</ele>
        <time>2022-10-05T14:07:46.684Z</time>
      </trkpt>
      <trkpt lat="44.58669" lon="0.83687">
        <ele>127.6</ele>
        <time>2022-10-05T14:08:12.695Z</time>
      </trkpt>
      <trkpt lat="44.58649" lon="0.83699">
        <ele>127.9</ele>
        <time>2022-10-05T14:08:17.098Z</time>
      </trkpt>
      <trkpt lat="44.58628" lon="0.83725">
        <ele>128.7</ele>
        <time>2022-10-05T14:08:23.805Z</time>
        <extensions>
          <visugpx:TrkExtension xmlns:visugpx="https://www.visugpx.com/editgpx/">
            <visugpx:node>17</visugpx:node>
            </visugpx:TrkExtension>
        </extensions>
      </trkpt>
      <trkpt lat="44.58621" lon="0.83734">
        <ele>128.7</ele>
        <time>2022-10-05T14:08:25.483Z</time>
      </trkpt>
      <trkpt lat="44.58639" lon="0.83774">
        <ele>133.6</ele>
        <time>2022-10-05T14:08:48.470Z</time>
      </trkpt>
      <trkpt lat="44.58665" lon="0.838">
        <ele>139.5</ele>
        <time>2022-10-05T14:09:10.243Z</time>
      </trkpt>
      <trkpt lat="44.58714" lon="0.83832">
        <ele>146.4</ele>
        <time>2022-10-05T14:09:44.277Z</time>
      </trkpt>
      <trkpt lat="44.58735" lon="0.83835">
        <ele>147.5</ele>
        <time>2022-10-05T14:09:50.896Z</time>
      </trkpt>
      <trkpt lat="44.58782" lon="0.8389">
        <ele>150.3</ele>
        <time>2022-10-05T14:10:09.305Z</time>
      </trkpt>
      <trkpt lat="44.588" lon="0.83905">
        <ele>152.1</ele>
        <time>2022-10-05T14:10:17.775Z</time>
      </trkpt>
      <trkpt lat="44.58843" lon="0.8398">
        <ele>152.7</ele>
        <time>2022-10-05T14:10:30.958Z</time>
      </trkpt>
      <trkpt lat="44.58871" lon="0.84045">
        <ele>152.1</ele>
        <time>2022-10-05T14:10:38.516Z</time>
      </trkpt>
      <trkpt lat="44.58902" lon="0.84068">
        <ele>152</ele>
        <time>2022-10-05T14:10:44.457Z</time>
      </trkpt>
      <trkpt lat="44.58924" lon="0.84098">
        <ele>151.9</ele>
        <time>2022-10-05T14:10:49.622Z</time>
        <extensions>
          <visugpx:TrkExtension xmlns:visugpx="https://www.visugpx.com/editgpx/">
            <visugpx:node>18</visugpx:node>
            </visugpx:TrkExtension>
        </extensions>
      </trkpt>
      <trkpt lat="44.58933" lon="0.8411">
        <ele>151.4</ele>
        <time>2022-10-05T14:10:50.876Z</time>
      </trkpt>
      <trkpt lat="44.58939" lon="0.84106">
        <ele>151.3</ele>
        <time>2022-10-05T14:10:51.758Z</time>
      </trkpt>
      <trkpt lat="44.59009" lon="0.84063">
        <ele>154.1</ele>
        <time>2022-10-05T14:11:12.098Z</time>
      </trkpt>
      <trkpt lat="44.59024" lon="0.84051">
        <ele>155</ele>
        <time>2022-10-05T14:11:17.512Z</time>
      </trkpt>
      <trkpt lat="44.5906" lon="0.84019">
        <ele>155.2</ele>
        <time>2022-10-05T14:11:25.385Z</time>
      </trkpt>
      <trkpt lat="44.59075" lon="0.84008">
        <ele>155</ele>
        <time>2022-10-05T14:11:27.727Z</time>
      </trkpt>
      <trkpt lat="44.591" lon="0.83995">
        <ele>154.7</ele>
        <time>2022-10-05T14:11:31.443Z</time>
      </trkpt>
      <trkpt lat="44.59117" lon="0.83984">
        <ele>154.8</ele>
        <time>2022-10-05T14:11:34.924Z</time>
      </trkpt>
      <trkpt lat="44.59122" lon="0.83977">
        <ele>154.9</ele>
        <time>2022-10-05T14:11:36.358Z</time>
        <extensions>
          <visugpx:TrkExtension xmlns:visugpx="https://www.visugpx.com/editgpx/">
            <visugpx:node>19</visugpx:node>
            </visugpx:TrkExtension>
        </extensions>
      </trkpt>
      <trkpt lat="44.59117" lon="0.83984">
        <ele>154.8</ele>
        <time>2022-10-05T14:11:37.307Z</time>
      </trkpt>
      <trkpt lat="44.59114" lon="0.84">
        <ele>153.9</ele>
        <time>2022-10-05T14:11:38.346Z</time>
      </trkpt>
      <trkpt lat="44.59108" lon="0.84039">
        <ele>152.3</ele>
        <time>2022-10-05T14:11:40.839Z</time>
      </trkpt>
      <trkpt lat="44.59105" lon="0.84073">
        <ele>150.7</ele>
        <time>2022-10-05T14:11:42.828Z</time>
      </trkpt>
      <trkpt lat="44.59105" lon="0.841">
        <ele>149.2</ele>
        <time>2022-10-05T14:11:44.525Z</time>
      </trkpt>
      <trkpt lat="44.59107" lon="0.84117">
        <ele>147.7</ele>
        <time>2022-10-05T14:11:45.608Z</time>
      </trkpt>
      <trkpt lat="44.59113" lon="0.84143">
        <ele>144.5</ele>
        <time>2022-10-05T14:11:47.325Z</time>
      </trkpt>
      <trkpt lat="44.59124" lon="0.84172">
        <ele>141.3</ele>
        <time>2022-10-05T14:11:49.390Z</time>
      </trkpt>
      <trkpt lat="44.59147" lon="0.8422">
        <ele>138.8</ele>
        <time>2022-10-05T14:11:52.879Z</time>
      </trkpt>
      <trkpt lat="44.59168" lon="0.84258">
        <ele>137.1</ele>
        <time>2022-10-05T14:11:56.059Z</time>
      </trkpt>
      <trkpt lat="44.59201" lon="0.84301">
        <ele>135.5</ele>
        <time>2022-10-05T14:12:00.823Z</time>
      </trkpt>
      <trkpt lat="44.59223" lon="0.84325">
        <ele>134.6</ele>
        <time>2022-10-05T14:12:03.868Z</time>
      </trkpt>
      <trkpt lat="44.59259" lon="0.84357">
        <ele>134.6</ele>
        <time>2022-10-05T14:12:11.403Z</time>
      </trkpt>
      <trkpt lat="44.59271" lon="0.84374">
        <ele>134.7</ele>
        <time>2022-10-05T14:12:14.589Z</time>
      </trkpt>
      <trkpt lat="44.59285" lon="0.844">
        <ele>136.3</ele>
        <time>2022-10-05T14:12:22.783Z</time>
      </trkpt>
      <trkpt lat="44.59294" lon="0.84423">
        <ele>137.7</ele>
        <time>2022-10-05T14:12:29.689Z</time>
      </trkpt>
      <trkpt lat="44.59301" lon="0.84449">
        <ele>138.4</ele>
        <time>2022-10-05T14:12:34.867Z</time>
      </trkpt>
      <trkpt lat="44.59305" lon="0.84476">
        <ele>138.1</ele>
        <time>2022-10-05T14:12:37.468Z</time>
      </trkpt>
      <trkpt lat="44.59307" lon="0.84495">
        <ele>138.1</ele>
        <time>2022-10-05T14:12:39.887Z</time>
      </trkpt>
      <trkpt lat="44.593" lon="0.84557">
        <ele>140.3</ele>
        <time>2022-10-05T14:12:53.639Z</time>
      </trkpt>
      <trkpt lat="44.593" lon="0.84581">
        <ele>141.3</ele>
        <time>2022-10-05T14:12:59.236Z</time>
      </trkpt>
      <trkpt lat="44.59315" lon="0.84648">
        <ele>143.6</ele>
        <time>2022-10-05T14:13:14.306Z</time>
      </trkpt>
      <trkpt lat="44.5935" lon="0.84743">
        <ele>151.3</ele>
        <time>2022-10-05T14:13:49.712Z</time>
      </trkpt>
      <trkpt lat="44.59359" lon="0.84761">
        <ele>154.4</ele>
        <time>2022-10-05T14:14:00.396Z</time>
      </trkpt>
      <trkpt lat="44.59389" lon="0.84805">
        <ele>160.9</ele>
        <time>2022-10-05T14:14:29.986Z</time>
      </trkpt>
      <trkpt lat="44.5939" lon="0.84808">
        <ele>161.1</ele>
        <time>2022-10-05T14:14:30.931Z</time>
        <extensions>
          <visugpx:TrkExtension xmlns:visugpx="https://www.visugpx.com/editgpx/">
            <visugpx:node>20</visugpx:node>
            </visugpx:TrkExtension>
        </extensions>
      </trkpt>
      <trkpt lat="44.59397" lon="0.84824">
        <ele>161.8</ele>
        <time>2022-10-05T14:14:35.131Z</time>
      </trkpt>
      <trkpt lat="44.59397" lon="0.84833">
        <ele>162</ele>
        <time>2022-10-05T14:14:36.718Z</time>
      </trkpt>
      <trkpt lat="44.59462" lon="0.84752">
        <ele>162</ele>
        <time>2022-10-05T14:14:52.087Z</time>
        <extensions>
          <visugpx:TrkExtension xmlns:visugpx="https://www.visugpx.com/editgpx/">
            <visugpx:node>21</visugpx:node>
            </visugpx:TrkExtension>
        </extensions>
      </trkpt>
      <trkpt lat="44.59471" lon="0.84741">
        <ele>162.3</ele>
        <time>2022-10-05T14:14:54.828Z</time>
      </trkpt>
      <trkpt lat="44.59422" lon="0.84586">
        <ele>159.9</ele>
        <time>2022-10-05T14:15:09.957Z</time>
      </trkpt>
      <trkpt lat="44.59425" lon="0.84526">
        <ele>156.1</ele>
        <time>2022-10-05T14:15:13.737Z</time>
        <extensions>
          <visugpx:TrkExtension xmlns:visugpx="https://www.visugpx.com/editgpx/">
            <visugpx:node>22</visugpx:node>
            </visugpx:TrkExtension>
        </extensions>
      </trkpt>
      <trkpt lat="44.59492" lon="0.84442">
        <ele>153.9</ele>
        <time>2022-10-05T14:15:24.409Z</time>
      </trkpt>
      <trkpt lat="44.59604" lon="0.84337">
        <ele>155.7</ele>
        <time>2022-10-05T14:15:51.547Z</time>
      </trkpt>
      <trkpt lat="44.59655" lon="0.84288">
        <ele>154.3</ele>
        <time>2022-10-05T14:15:59.044Z</time>
      </trkpt>
      <trkpt lat="44.59701" lon="0.84213">
        <ele>148.5</ele>
        <time>2022-10-05T14:16:05.264Z</time>
      </trkpt>
      <trkpt lat="44.59719" lon="0.84198">
        <ele>147.4</ele>
        <time>2022-10-05T14:16:07.159Z</time>
      </trkpt>
      <trkpt lat="44.59792" lon="0.84078">
        <ele>142.7</ele>
        <time>2022-10-05T14:16:18.353Z</time>
      </trkpt>
      <trkpt lat="44.59843" lon="0.84008">
        <ele>144.4</ele>
        <time>2022-10-05T14:16:34.487Z</time>
        <extensions>
          <visugpx:TrkExtension xmlns:visugpx="https://www.visugpx.com/editgpx/">
            <visugpx:node>23</visugpx:node>
            </visugpx:TrkExtension>
        </extensions>
      </trkpt>
      <trkpt lat="44.59849" lon="0.84">
        <ele>144.6</ele>
        <time>2022-10-05T14:16:36.367Z</time>
      </trkpt>
      <trkpt lat="44.59914" lon="0.84116">
        <ele>145.9</ele>
        <time>2022-10-05T14:16:57.329Z</time>
      </trkpt>
      <trkpt lat="44.5996" lon="0.84226">
        <ele>137.9</ele>
        <time>2022-10-05T14:17:05.345Z</time>
      </trkpt>
      <trkpt lat="44.59984" lon="0.8425">
        <ele>135.3</ele>
        <time>2022-10-05T14:17:07.945Z</time>
      </trkpt>
      <trkpt lat="44.60056" lon="0.84267">
        <ele>126.5</ele>
        <time>2022-10-05T14:17:14.389Z</time>
      </trkpt>
      <trkpt lat="44.60082" lon="0.84305">
        <ele>126.9</ele>
        <time>2022-10-05T14:17:21.743Z</time>
      </trkpt>
      <trkpt lat="44.60084" lon="0.84302">
        <ele>126.8</ele>
        <time>2022-10-05T14:17:22.057Z</time>
      </trkpt>
      <trkpt lat="44.60106" lon="0.84273">
        <ele>125.5</ele>
        <time>2022-10-05T14:17:25.027Z</time>
      </trkpt>
      <trkpt lat="44.60107" lon="0.8427">
        <ele>125.3</ele>
        <time>2022-10-05T14:17:25.235Z</time>
      </trkpt>
      <trkpt lat="44.60113" lon="0.84306">
        <ele>129</ele>
        <time>2022-10-05T14:17:43.192Z</time>
        <extensions>
          <visugpx:TrkExtension xmlns:visugpx="https://www.visugpx.com/editgpx/">
            <visugpx:node>24</visugpx:node>
            </visugpx:TrkExtension>
        </extensions>
      </trkpt>
      <trkpt lat="44.60107" lon="0.8427">
        <ele>125.3</ele>
        <time>2022-10-05T14:17:45.516Z</time>
      </trkpt>
      <trkpt lat="44.60115" lon="0.8425">
        <ele>124</ele>
        <time>2022-10-05T14:17:46.957Z</time>
      </trkpt>
      <trkpt lat="44.60136" lon="0.84168">
        <ele>122.9</ele>
        <time>2022-10-05T14:17:54.931Z</time>
      </trkpt>
      <trkpt lat="44.60138" lon="0.84147">
        <ele>123</ele>
        <time>2022-10-05T14:17:57.771Z</time>
      </trkpt>
      <trkpt lat="44.60154" lon="0.84141">
        <ele>124.5</ele>
        <time>2022-10-05T14:18:04.747Z</time>
      </trkpt>
      <trkpt lat="44.60167" lon="0.84128">
        <ele>126.9</ele>
        <time>2022-10-05T14:18:15.633Z</time>
      </trkpt>
      <trkpt lat="44.60178" lon="0.84103">
        <ele>130.8</ele>
        <time>2022-10-05T14:18:29.906Z</time>
      </trkpt>
      <trkpt lat="44.60195" lon="0.8409">
        <ele>134.1</ele>
        <time>2022-10-05T14:18:43.110Z</time>
      </trkpt>
      <trkpt lat="44.60202" lon="0.84077">
        <ele>135.5</ele>
        <time>2022-10-05T14:18:49.791Z</time>
      </trkpt>
      <trkpt lat="44.60213" lon="0.8407">
        <ele>137.5</ele>
        <time>2022-10-05T14:18:58.029Z</time>
      </trkpt>
      <trkpt lat="44.60227" lon="0.84079">
        <ele>139.7</ele>
        <time>2022-10-05T14:19:08.531Z</time>
      </trkpt>
      <trkpt lat="44.60248" lon="0.84097">
        <ele>142.7</ele>
        <time>2022-10-05T14:19:22.923Z</time>
      </trkpt>
      <trkpt lat="44.60274" lon="0.84104">
        <ele>144.7</ele>
        <time>2022-10-05T14:19:32.755Z</time>
      </trkpt>
      <trkpt lat="44.60299" lon="0.84102">
        <ele>146.3</ele>
        <time>2022-10-05T14:19:41.274Z</time>
      </trkpt>
      <trkpt lat="44.6034" lon="0.84086">
        <ele>145.8</ele>
        <time>2022-10-05T14:19:47.167Z</time>
      </trkpt>
      <trkpt lat="44.60356" lon="0.8408">
        <ele>146</ele>
        <time>2022-10-05T14:19:50.460Z</time>
      </trkpt>
      <trkpt lat="44.60402" lon="0.8408">
        <ele>146.9</ele>
        <time>2022-10-05T14:20:00.372Z</time>
      </trkpt>
      <trkpt lat="44.60419" lon="0.84076">
        <ele>147.1</ele>
        <time>2022-10-05T14:20:03.783Z</time>
      </trkpt>
      <trkpt lat="44.60477" lon="0.84047">
        <ele>148.7</ele>
        <time>2022-10-05T14:20:18.072Z</time>
      </trkpt>
      <trkpt lat="44.60486" lon="0.84042">
        <ele>148.8</ele>
        <time>2022-10-05T14:20:19.963Z</time>
        <extensions>
          <visugpx:TrkExtension xmlns:visugpx="https://www.visugpx.com/editgpx/">
            <visugpx:node>25</visugpx:node>
            </visugpx:TrkExtension>
        </extensions>
      </trkpt>
      <trkpt lat="44.60493" lon="0.84038">
        <ele>148.8</ele>
        <time>2022-10-05T14:20:21.299Z</time>
      </trkpt>
      <trkpt lat="44.60496" lon="0.84059">
        <ele>148.9</ele>
        <time>2022-10-05T14:20:24.168Z</time>
      </trkpt>
      <trkpt lat="44.60504" lon="0.8408">
        <ele>148</ele>
        <time>2022-10-05T14:20:25.697Z</time>
      </trkpt>
      <trkpt lat="44.60518" lon="0.84094">
        <ele>146.7</ele>
        <time>2022-10-05T14:20:27.213Z</time>
      </trkpt>
      <trkpt lat="44.60561" lon="0.84119">
        <ele>144.6</ele>
        <time>2022-10-05T14:20:31.710Z</time>
      </trkpt>
      <trkpt lat="44.60599" lon="0.84145">
        <ele>145.6</ele>
        <time>2022-10-05T14:20:41.253Z</time>
      </trkpt>
      <trkpt lat="44.60605" lon="0.84152">
        <ele>146.2</ele>
        <time>2022-10-05T14:20:44.182Z</time>
      </trkpt>
      <trkpt lat="44.6062" lon="0.8417">
        <ele>148</ele>
        <time>2022-10-05T14:20:52.541Z</time>
      </trkpt>
      <trkpt lat="44.60653" lon="0.84218">
        <ele>150.7</ele>
        <time>2022-10-05T14:21:07.920Z</time>
      </trkpt>
      <trkpt lat="44.60671" lon="0.84232">
        <ele>152.1</ele>
        <time>2022-10-05T14:21:15.136Z</time>
      </trkpt>
      <trkpt lat="44.60731" lon="0.84257">
        <ele>157.1</ele>
        <time>2022-10-05T14:21:39.203Z</time>
      </trkpt>
      <trkpt lat="44.60792" lon="0.84274">
        <ele>160.4</ele>
        <time>2022-10-05T14:21:58.827Z</time>
      </trkpt>
      <trkpt lat="44.60821" lon="0.84282">
        <ele>160.3</ele>
        <time>2022-10-05T14:22:03.796Z</time>
      </trkpt>
      <trkpt lat="44.60824" lon="0.84283">
        <ele>160.1</ele>
        <time>2022-10-05T14:22:04.049Z</time>
      </trkpt>
      <trkpt lat="44.60951" lon="0.84287">
        <ele>154.1</ele>
        <time>2022-10-05T14:22:16.093Z</time>
      </trkpt>
      <trkpt lat="44.60992" lon="0.84285">
        <ele>151.7</ele>
        <time>2022-10-05T14:22:19.629Z</time>
      </trkpt>
      <trkpt lat="44.61051" lon="0.84271">
        <ele>148.3</ele>
        <time>2022-10-05T14:22:24.856Z</time>
      </trkpt>
      <trkpt lat="44.61083" lon="0.84263">
        <ele>147</ele>
        <time>2022-10-05T14:22:28.150Z</time>
      </trkpt>
      <trkpt lat="44.61156" lon="0.84245">
        <ele>142.2</ele>
        <time>2022-10-05T14:22:34.230Z</time>
      </trkpt>
      <trkpt lat="44.61181" lon="0.84243">
        <ele>140.1</ele>
        <time>2022-10-05T14:22:36.439Z</time>
      </trkpt>
      <trkpt lat="44.61184" lon="0.84242">
        <ele>139.9</ele>
        <time>2022-10-05T14:22:36.692Z</time>
      </trkpt>
      <trkpt lat="44.61195" lon="0.84242">
        <ele>139.3</ele>
        <time>2022-10-05T14:22:37.671Z</time>
      </trkpt>
      <trkpt lat="44.61184" lon="0.84242">
        <ele>139.9</ele>
        <time>2022-10-05T14:22:41.177Z</time>
      </trkpt>
      <trkpt lat="44.61195" lon="0.84242">
        <ele>139.3</ele>
        <time>2022-10-05T14:22:42.157Z</time>
        <extensions>
          <visugpx:TrkExtension xmlns:visugpx="https://www.visugpx.com/editgpx/">
            <visugpx:node>26</visugpx:node>
            </visugpx:TrkExtension>
        </extensions>
      </trkpt>
      <trkpt lat="44.61221" lon="0.84242">
        <ele>138.3</ele>
        <time>2022-10-05T14:22:44.830Z</time>
      </trkpt>
      <trkpt lat="44.61272" lon="0.84254">
        <ele>136.4</ele>
        <time>2022-10-05T14:22:50.237Z</time>
      </trkpt>
      <trkpt lat="44.61297" lon="0.8428">
        <ele>136.5</ele>
        <time>2022-10-05T14:22:55.905Z</time>
      </trkpt>
      <trkpt lat="44.61328" lon="0.84312">
        <ele>138.3</ele>
        <time>2022-10-05T14:23:07.556Z</time>
      </trkpt>
      <trkpt lat="44.61353" lon="0.84333">
        <ele>139.7</ele>
        <time>2022-10-05T14:23:16.451Z</time>
      </trkpt>
      <trkpt lat="44.61377" lon="0.84366">
        <ele>140.6</ele>
        <time>2022-10-05T14:23:24.322Z</time>
      </trkpt>
      <trkpt lat="44.61415" lon="0.84398">
        <ele>141</ele>
        <time>2022-10-05T14:23:32.864Z</time>
      </trkpt>
      <trkpt lat="44.61476" lon="0.84437">
        <ele>143.9</ele>
        <time>2022-10-05T14:23:52.498Z</time>
      </trkpt>
      <trkpt lat="44.61533" lon="0.84488">
        <ele>147.5</ele>
        <time>2022-10-05T14:24:13.854Z</time>
      </trkpt>
      <trkpt lat="44.6155" lon="0.84503">
        <ele>147.1</ele>
        <time>2022-10-05T14:24:16.367Z</time>
      </trkpt>
      <trkpt lat="44.61583" lon="0.84533">
        <ele>145</ele>
        <time>2022-10-05T14:24:19.900Z</time>
      </trkpt>
      <trkpt lat="44.61609" lon="0.84545">
        <ele>143.2</ele>
        <time>2022-10-05T14:24:22.127Z</time>
      </trkpt>
      <trkpt lat="44.6166" lon="0.84549">
        <ele>139.1</ele>
        <time>2022-10-05T14:24:26.635Z</time>
      </trkpt>
      <trkpt lat="44.61674" lon="0.84542">
        <ele>138.5</ele>
        <time>2022-10-05T14:24:28.135Z</time>
      </trkpt>
      <trkpt lat="44.61694" lon="0.84522">
        <ele>137</ele>
        <time>2022-10-05T14:24:30.207Z</time>
      </trkpt>
      <trkpt lat="44.61865" lon="0.84331">
        <ele>129.3</ele>
        <time>2022-10-05T14:24:53.390Z</time>
      </trkpt>
      <trkpt lat="44.61909" lon="0.84263">
        <ele>128.6</ele>
        <time>2022-10-05T14:25:02.574Z</time>
      </trkpt>
      <trkpt lat="44.61938" lon="0.84234">
        <ele>129.2</ele>
        <time>2022-10-05T14:25:10.019Z</time>
      </trkpt>
      <trkpt lat="44.61952" lon="0.84233">
        <ele>129.2</ele>
        <time>2022-10-05T14:25:12.498Z</time>
      </trkpt>
      <trkpt lat="44.61965" lon="0.84242">
        <ele>129</ele>
        <time>2022-10-05T14:25:14.453Z</time>
      </trkpt>
      <trkpt lat="44.62" lon="0.84275">
        <ele>127.8</ele>
        <time>2022-10-05T14:25:19.249Z</time>
      </trkpt>
      <trkpt lat="44.62027" lon="0.84294">
        <ele>125.7</ele>
        <time>2022-10-05T14:25:21.914Z</time>
      </trkpt>
      <trkpt lat="44.62048" lon="0.84297">
        <ele>125</ele>
        <time>2022-10-05T14:25:24.202Z</time>
      </trkpt>
      <trkpt lat="44.62055" lon="0.84298">
        <ele>124.7</ele>
        <time>2022-10-05T14:25:24.897Z</time>
      </trkpt>
      <trkpt lat="44.62062" lon="0.843">
        <ele>124.8</ele>
        <time>2022-10-05T14:25:26.346Z</time>
      </trkpt>
      <trkpt lat="44.62086" lon="0.84305">
        <ele>125.1</ele>
        <time>2022-10-05T14:25:31.185Z</time>
      </trkpt>
      <trkpt lat="44.62135" lon="0.84321">
        <ele>128.8</ele>
        <time>2022-10-05T14:25:49.580Z</time>
      </trkpt>
      <trkpt lat="44.6221" lon="0.84368">
        <ele>136.4</ele>
        <time>2022-10-05T14:26:24.790Z</time>
      </trkpt>
      <trkpt lat="44.62248" lon="0.84367">
        <ele>137.9</ele>
        <time>2022-10-05T14:26:35.317Z</time>
      </trkpt>
      <trkpt lat="44.62269" lon="0.84376">
        <ele>139.7</ele>
        <time>2022-10-05T14:26:43.906Z</time>
      </trkpt>
      <trkpt lat="44.62302" lon="0.84398">
        <ele>141.2</ele>
        <time>2022-10-05T14:26:54.261Z</time>
      </trkpt>
      <trkpt lat="44.62313" lon="0.84401">
        <ele>141.6</ele>
        <time>2022-10-05T14:26:57.205Z</time>
      </trkpt>
      <trkpt lat="44.62316" lon="0.84423">
        <ele>143.5</ele>
        <time>2022-10-05T14:27:06.222Z</time>
      </trkpt>
      <trkpt lat="44.62315" lon="0.84446">
        <ele>145.1</ele>
        <time>2022-10-05T14:27:13.589Z</time>
      </trkpt>
      <trkpt lat="44.62307" lon="0.84474">
        <ele>147</ele>
        <time>2022-10-05T14:27:22.468Z</time>
      </trkpt>
      <trkpt lat="44.62302" lon="0.8449">
        <ele>147.8</ele>
        <time>2022-10-05T14:27:26.713Z</time>
      </trkpt>
      <trkpt lat="44.62295" lon="0.8451">
        <ele>149.1</ele>
        <time>2022-10-05T14:27:32.917Z</time>
      </trkpt>
      <trkpt lat="44.62288" lon="0.84545">
        <ele>150.9</ele>
        <time>2022-10-05T14:27:42.095Z</time>
      </trkpt>
      <trkpt lat="44.62288" lon="0.84579">
        <ele>151.6</ele>
        <time>2022-10-05T14:27:47.917Z</time>
      </trkpt>
      <trkpt lat="44.62293" lon="0.84608">
        <ele>151.9</ele>
        <time>2022-10-05T14:27:52.231Z</time>
      </trkpt>
      <trkpt lat="44.62315" lon="0.84664">
        <ele>153.2</ele>
        <time>2022-10-05T14:28:03.135Z</time>
      </trkpt>
      <trkpt lat="44.62328" lon="0.84705">
        <ele>154.6</ele>
        <time>2022-10-05T14:28:12.573Z</time>
      </trkpt>
      <trkpt lat="44.62339" lon="0.84757">
        <ele>155.8</ele>
        <time>2022-10-05T14:28:22.119Z</time>
      </trkpt>
      <trkpt lat="44.62371" lon="0.84858">
        <ele>160.3</ele>
        <time>2022-10-05T14:28:47.654Z</time>
      </trkpt>
      <trkpt lat="44.6242" lon="0.84997">
        <ele>166.1</ele>
        <time>2022-10-05T14:29:22.370Z</time>
      </trkpt>
      <trkpt lat="44.62431" lon="0.85021">
        <ele>165</ele>
        <time>2022-10-05T14:29:24.185Z</time>
      </trkpt>
      <trkpt lat="44.62446" lon="0.85023">
        <ele>165.4</ele>
        <time>2022-10-05T14:29:27.706Z</time>
      </trkpt>
      <trkpt lat="44.62528" lon="0.8504">
        <ele>169</ele>
        <time>2022-10-05T14:29:52.049Z</time>
      </trkpt>
      <trkpt lat="44.62629" lon="0.85088">
        <ele>169.8</ele>
        <time>2022-10-05T14:30:12.296Z</time>
      </trkpt>
      <trkpt lat="44.62641" lon="0.85091">
        <ele>170.2</ele>
        <time>2022-10-05T14:30:15.378Z</time>
      </trkpt>
      <trkpt lat="44.62686" lon="0.85105">
        <ele>173.7</ele>
        <time>2022-10-05T14:30:32.549Z</time>
      </trkpt>
      <trkpt lat="44.62746" lon="0.85115">
        <ele>176.7</ele>
        <time>2022-10-05T14:30:51.191Z</time>
      </trkpt>
      <trkpt lat="44.62767" lon="0.85126">
        <ele>177.9</ele>
        <time>2022-10-05T14:30:58.286Z</time>
      </trkpt>
      <trkpt lat="44.62808" lon="0.85153">
        <ele>179</ele>
        <time>2022-10-05T14:31:08.585Z</time>
      </trkpt>
      <trkpt lat="44.62955" lon="0.85207">
        <ele>182.8</ele>
        <time>2022-10-05T14:31:43.441Z</time>
      </trkpt>
      <trkpt lat="44.63049" lon="0.85246">
        <ele>182.6</ele>
        <time>2022-10-05T14:32:00.249Z</time>
      </trkpt>
      <trkpt lat="44.63078" lon="0.85261">
        <ele>182.9</ele>
        <time>2022-10-05T14:32:06.247Z</time>
      </trkpt>
      <trkpt lat="44.63188" lon="0.85384">
        <ele>186.9</ele>
        <time>2022-10-05T14:32:39.872Z</time>
      </trkpt>
      <trkpt lat="44.63221" lon="0.85407">
        <ele>189</ele>
        <time>2022-10-05T14:32:51.811Z</time>
      </trkpt>
      <trkpt lat="44.6328" lon="0.85441">
        <ele>194.8</ele>
        <time>2022-10-05T14:33:18.762Z</time>
      </trkpt>
      <trkpt lat="44.63335" lon="0.8547">
        <ele>195.9</ele>
        <time>2022-10-05T14:33:31.302Z</time>
      </trkpt>
      <trkpt lat="44.63369" lon="0.85491">
        <ele>193.7</ele>
        <time>2022-10-05T14:33:34.484Z</time>
      </trkpt>
      <trkpt lat="44.63433" lon="0.85518">
        <ele>190.4</ele>
        <time>2022-10-05T14:33:40.700Z</time>
      </trkpt>
      <trkpt lat="44.63456" lon="0.85533">
        <ele>189.6</ele>
        <time>2022-10-05T14:33:43.494Z</time>
      </trkpt>
      <trkpt lat="44.63478" lon="0.85538">
        <ele>188.9</ele>
        <time>2022-10-05T14:33:45.953Z</time>
      </trkpt>
      <trkpt lat="44.63511" lon="0.85549">
        <ele>188.2</ele>
        <time>2022-10-05T14:33:50.164Z</time>
      </trkpt>
      <trkpt lat="44.63526" lon="0.8556">
        <ele>187.8</ele>
        <time>2022-10-05T14:33:52.193Z</time>
      </trkpt>
      <trkpt lat="44.63593" lon="0.85628">
        <ele>182.1</ele>
        <time>2022-10-05T14:33:59.487Z</time>
      </trkpt>
      <trkpt lat="44.63628" lon="0.85651">
        <ele>177.9</ele>
        <time>2022-10-05T14:34:02.897Z</time>
      </trkpt>
      <trkpt lat="44.6366" lon="0.85662">
        <ele>174.8</ele>
        <time>2022-10-05T14:34:05.804Z</time>
      </trkpt>
      <trkpt lat="44.63688" lon="0.85668">
        <ele>172.4</ele>
        <time>2022-10-05T14:34:08.304Z</time>
      </trkpt>
      <trkpt lat="44.63715" lon="0.85702">
        <ele>172</ele>
        <time>2022-10-05T14:34:13.372Z</time>
      </trkpt>
      <trkpt lat="44.63737" lon="0.85703">
        <ele>172.8</ele>
        <time>2022-10-05T14:34:19.207Z</time>
      </trkpt>
      <trkpt lat="44.6376" lon="0.85742">
        <ele>175.3</ele>
        <time>2022-10-05T14:34:31.972Z</time>
      </trkpt>
      <trkpt lat="44.63776" lon="0.85777">
        <ele>175.9</ele>
        <time>2022-10-05T14:34:38.401Z</time>
      </trkpt>
      <trkpt lat="44.63793" lon="0.8579">
        <ele>176.4</ele>
        <time>2022-10-05T14:34:42.884Z</time>
      </trkpt>
      <trkpt lat="44.63806" lon="0.85812">
        <ele>177</ele>
        <time>2022-10-05T14:34:47.815Z</time>
      </trkpt>
      <trkpt lat="44.63846" lon="0.85859">
        <ele>179</ele>
        <time>2022-10-05T14:35:02.030Z</time>
      </trkpt>
      <trkpt lat="44.63855" lon="0.85877">
        <ele>179.6</ele>
        <time>2022-10-05T14:35:06.296Z</time>
      </trkpt>
      <trkpt lat="44.63871" lon="0.85893">
        <ele>179.6</ele>
        <time>2022-10-05T14:35:09.769Z</time>
      </trkpt>
      <trkpt lat="44.63885" lon="0.85901">
        <ele>179.1</ele>
        <time>2022-10-05T14:35:11.408Z</time>
      </trkpt>
      <trkpt lat="44.63984" lon="0.85922">
        <ele>178.6</ele>
        <time>2022-10-05T14:35:27.856Z</time>
      </trkpt>
      <trkpt lat="44.63991" lon="0.85926">
        <ele>178.3</ele>
        <time>2022-10-05T14:35:28.624Z</time>
      </trkpt>
      <trkpt lat="44.64022" lon="0.85895">
        <ele>178</ele>
        <time>2022-10-05T14:35:34.171Z</time>
      </trkpt>
      <trkpt lat="44.64031" lon="0.85886">
        <ele>177.8</ele>
        <time>2022-10-05T14:35:35.585Z</time>
      </trkpt>
      <trkpt lat="44.64023" lon="0.85917">
        <ele>178</ele>
        <time>2022-10-05T14:35:40.086Z</time>
      </trkpt>
      <trkpt lat="44.64024" lon="0.8594">
        <ele>178</ele>
        <time>2022-10-05T14:35:42.985Z</time>
      </trkpt>
      <trkpt lat="44.64032" lon="0.8599">
        <ele>178.8</ele>
        <time>2022-10-05T14:35:51.056Z</time>
      </trkpt>
      <trkpt lat="44.64028" lon="0.86035">
        <ele>179</ele>
        <time>2022-10-05T14:35:57.106Z</time>
      </trkpt>
      <trkpt lat="44.64022" lon="0.86076">
        <ele>179.8</ele>
        <time>2022-10-05T14:36:04.092Z</time>
      </trkpt>
      <trkpt lat="44.6399" lon="0.86302">
        <ele>188.7</ele>
        <time>2022-10-05T14:36:56.257Z</time>
      </trkpt>
      <trkpt lat="44.63984" lon="0.86445">
        <ele>186.6</ele>
        <time>2022-10-05T14:37:08.918Z</time>
      </trkpt>
      <trkpt lat="44.63998" lon="0.8658">
        <ele>187</ele>
        <time>2022-10-05T14:37:26.758Z</time>
      </trkpt>
      <trkpt lat="44.64001" lon="0.8659">
        <ele>187.2</ele>
        <time>2022-10-05T14:37:28.549Z</time>
        <extensions>
          <visugpx:TrkExtension xmlns:visugpx="https://www.visugpx.com/editgpx/">
            <visugpx:node>27</visugpx:node>
            </visugpx:TrkExtension>
        </extensions>
      </trkpt>
      <trkpt lat="44.64019" lon="0.8666">
        <ele>189.8</ele>
        <time>2022-10-05T14:37:44.829Z</time>
      </trkpt>
      <trkpt lat="44.64017" lon="0.86661">
        <ele>189.8</ele>
        <time>2022-10-05T14:37:45.204Z</time>
      </trkpt>
      <trkpt lat="44.64023" lon="0.86693">
        <ele>190</ele>
        <time>2022-10-05T14:37:49.720Z</time>
      </trkpt>
      <trkpt lat="44.6403" lon="0.86754">
        <ele>190.3</ele>
        <time>2022-10-05T14:37:58.013Z</time>
      </trkpt>
      <trkpt lat="44.64035" lon="0.86843">
        <ele>192.5</ele>
        <time>2022-10-05T14:38:14.467Z</time>
      </trkpt>
      <trkpt lat="44.64026" lon="0.86962">
        <ele>192.1</ele>
        <time>2022-10-05T14:38:28.515Z</time>
      </trkpt>
      <trkpt lat="44.6402" lon="0.87002">
        <ele>192.3</ele>
        <time>2022-10-05T14:38:34.004Z</time>
      </trkpt>
      <trkpt lat="44.63985" lon="0.87133">
        <ele>193.5</ele>
        <time>2022-10-05T14:38:53.798Z</time>
      </trkpt>
      <trkpt lat="44.63977" lon="0.87154">
        <ele>193.2</ele>
        <time>2022-10-05T14:38:55.977Z</time>
      </trkpt>
      <trkpt lat="44.63963" lon="0.87175">
        <ele>192.8</ele>
        <time>2022-10-05T14:38:58.552Z</time>
      </trkpt>
      <trkpt lat="44.63921" lon="0.8725">
        <ele>190.5</ele>
        <time>2022-10-05T14:39:05.859Z</time>
      </trkpt>
      <trkpt lat="44.63891" lon="0.87304">
        <ele>188.3</ele>
        <time>2022-10-05T14:39:10.569Z</time>
      </trkpt>
      <trkpt lat="44.63874" lon="0.87341">
        <ele>188.2</ele>
        <time>2022-10-05T14:39:15.853Z</time>
      </trkpt>
      <trkpt lat="44.63866" lon="0.8737">
        <ele>187.6</ele>
        <time>2022-10-05T14:39:18.408Z</time>
      </trkpt>
      <trkpt lat="44.63861" lon="0.87401">
        <ele>186.6</ele>
        <time>2022-10-05T14:39:20.612Z</time>
      </trkpt>
      <trkpt lat="44.63866" lon="0.8753">
        <ele>184.9</ele>
        <time>2022-10-05T14:39:32.318Z</time>
      </trkpt>
      <trkpt lat="44.63872" lon="0.87607">
        <ele>184.3</ele>
        <time>2022-10-05T14:39:40.038Z</time>
      </trkpt>
      <trkpt lat="44.63885" lon="0.87654">
        <ele>183.7</ele>
        <time>2022-10-05T14:39:44.706Z</time>
      </trkpt>
      <trkpt lat="44.63901" lon="0.87703">
        <ele>184.4</ele>
        <time>2022-10-05T14:39:52.852Z</time>
      </trkpt>
      <trkpt lat="44.63953" lon="0.87776">
        <ele>186.9</ele>
        <time>2022-10-05T14:40:11.732Z</time>
      </trkpt>
      <trkpt lat="44.63959" lon="0.87793">
        <ele>187.5</ele>
        <time>2022-10-05T14:40:15.759Z</time>
      </trkpt>
      <trkpt lat="44.63966" lon="0.87804">
        <ele>187.6</ele>
        <time>2022-10-05T14:40:17.794Z</time>
      </trkpt>
      <trkpt lat="44.6399" lon="0.87866">
        <ele>188.8</ele>
        <time>2022-10-05T14:40:29.164Z</time>
      </trkpt>
      <trkpt lat="44.64023" lon="0.87938">
        <ele>189</ele>
        <time>2022-10-05T14:40:40.275Z</time>
      </trkpt>
      <trkpt lat="44.64055" lon="0.88016">
        <ele>192.6</ele>
        <time>2022-10-05T14:41:00.924Z</time>
      </trkpt>
      <trkpt lat="44.6406" lon="0.8803">
        <ele>192.9</ele>
        <time>2022-10-05T14:41:03.540Z</time>
      </trkpt>
      <trkpt lat="44.64064" lon="0.88096">
        <ele>189.9</ele>
        <time>2022-10-05T14:41:07.439Z</time>
      </trkpt>
      <trkpt lat="44.64064" lon="0.88121">
        <ele>189</ele>
        <time>2022-10-05T14:41:09.077Z</time>
      </trkpt>
      <trkpt lat="44.64064" lon="0.88143">
        <ele>188.5</ele>
        <time>2022-10-05T14:41:10.794Z</time>
      </trkpt>
      <trkpt lat="44.64064" lon="0.88146">
        <ele>188.5</ele>
        <time>2022-10-05T14:41:11.172Z</time>
      </trkpt>
      <trkpt lat="44.64067" lon="0.88147">
        <ele>188.4</ele>
        <time>2022-10-05T14:41:11.509Z</time>
      </trkpt>
      <trkpt lat="44.64125" lon="0.88198">
        <ele>189.1</ele>
        <time>2022-10-05T14:41:24.859Z</time>
      </trkpt>
      <trkpt lat="44.64272" lon="0.88266">
        <ele>199.9</ele>
        <time>2022-10-05T14:42:19.844Z</time>
      </trkpt>
      <trkpt lat="44.64372" lon="0.88339">
        <ele>206.5</ele>
        <time>2022-10-05T14:42:56.762Z</time>
      </trkpt>
      <trkpt lat="44.64432" lon="0.88377">
        <ele>204.8</ele>
        <time>2022-10-05T14:43:04.468Z</time>
      </trkpt>
      <trkpt lat="44.64478" lon="0.88413">
        <ele>205.7</ele>
        <time>2022-10-05T14:43:15.508Z</time>
      </trkpt>
      <trkpt lat="44.64486" lon="0.8842">
        <ele>205.4</ele>
        <time>2022-10-05T14:43:16.543Z</time>
      </trkpt>
      <trkpt lat="44.64552" lon="0.88513">
        <ele>203</ele>
        <time>2022-10-05T14:43:27.503Z</time>
      </trkpt>
      <trkpt lat="44.64825" lon="0.88554">
        <ele>184.7</ele>
        <time>2022-10-05T14:43:49.702Z</time>
      </trkpt>
      <trkpt lat="44.64859" lon="0.88554">
        <ele>181.4</ele>
        <time>2022-10-05T14:43:52.702Z</time>
      </trkpt>
      <trkpt lat="44.64888" lon="0.88548">
        <ele>178.9</ele>
        <time>2022-10-05T14:43:55.289Z</time>
      </trkpt>
      <trkpt lat="44.64913" lon="0.88542">
        <ele>177.3</ele>
        <time>2022-10-05T14:43:57.397Z</time>
      </trkpt>
      <trkpt lat="44.64949" lon="0.8854">
        <ele>175.5</ele>
        <time>2022-10-05T14:44:00.732Z</time>
      </trkpt>
      <trkpt lat="44.65093" lon="0.88568">
        <ele>188.1</ele>
        <time>2022-10-05T14:44:59.904Z</time>
      </trkpt>
      <trkpt lat="44.6514" lon="0.88589">
        <ele>192.5</ele>
        <time>2022-10-05T14:45:20.429Z</time>
      </trkpt>
      <trkpt lat="44.65163" lon="0.88607">
        <ele>194.8</ele>
        <time>2022-10-05T14:45:31.209Z</time>
      </trkpt>
      <trkpt lat="44.65179" lon="0.88613">
        <ele>196.5</ele>
        <time>2022-10-05T14:45:39.027Z</time>
      </trkpt>
      <trkpt lat="44.65199" lon="0.88613">
        <ele>198.6</ele>
        <time>2022-10-05T14:45:48.696Z</time>
      </trkpt>
      <trkpt lat="44.65217" lon="0.88603">
        <ele>200.4</ele>
        <time>2022-10-05T14:45:57.029Z</time>
      </trkpt>
      <trkpt lat="44.65228" lon="0.88591">
        <ele>201.4</ele>
        <time>2022-10-05T14:46:02.053Z</time>
      </trkpt>
      <trkpt lat="44.65232" lon="0.8858">
        <ele>201.8</ele>
        <time>2022-10-05T14:46:04.693Z</time>
      </trkpt>
      <trkpt lat="44.65238" lon="0.88564">
        <ele>202.4</ele>
        <time>2022-10-05T14:46:08.586Z</time>
      </trkpt>
      <trkpt lat="44.65248" lon="0.88538">
        <ele>202.4</ele>
        <time>2022-10-05T14:46:12.304Z</time>
      </trkpt>
      <trkpt lat="44.65253" lon="0.88533">
        <ele>202.1</ele>
        <time>2022-10-05T14:46:12.878Z</time>
      </trkpt>
      <trkpt lat="44.65249" lon="0.8852">
        <ele>202.3</ele>
        <time>2022-10-05T14:46:15.056Z</time>
      </trkpt>
      <trkpt lat="44.65248" lon="0.88488">
        <ele>203</ele>
        <time>2022-10-05T14:46:20.663Z</time>
      </trkpt>
      <trkpt lat="44.65262" lon="0.88241">
        <ele>201</ele>
        <time>2022-10-05T14:46:45.204Z</time>
      </trkpt>
      <trkpt lat="44.65262" lon="0.88208">
        <ele>201</ele>
        <time>2022-10-05T14:46:49.355Z</time>
      </trkpt>
      <trkpt lat="44.65277" lon="0.88135">
        <ele>201</ele>
        <time>2022-10-05T14:46:58.915Z</time>
      </trkpt>
      <trkpt lat="44.65295" lon="0.88026">
        <ele>200.3</ele>
        <time>2022-10-05T14:47:10.379Z</time>
        <extensions>
          <visugpx:TrkExtension xmlns:visugpx="https://www.visugpx.com/editgpx/">
            <visugpx:node>28</visugpx:node>
            </visugpx:TrkExtension>
        </extensions>
      </trkpt>
      <trkpt lat="44.65296" lon="0.88017">
        <ele>200.1</ele>
        <time>2022-10-05T14:47:11.098Z</time>
      </trkpt>
      <trkpt lat="44.65301" lon="0.87949">
        <ele>199.2</ele>
        <time>2022-10-05T14:47:17.290Z</time>
      </trkpt>
      <trkpt lat="44.65317" lon="0.87855">
        <ele>198.2</ele>
        <time>2022-10-05T14:47:26.479Z</time>
      </trkpt>
      <trkpt lat="44.65336" lon="0.87768">
        <ele>197.8</ele>
        <time>2022-10-05T14:47:36.938Z</time>
      </trkpt>
      <trkpt lat="44.65395" lon="0.87583">
        <ele>197.8</ele>
        <time>2022-10-05T14:48:02.444Z</time>
      </trkpt>
      <trkpt lat="44.65443" lon="0.87486">
        <ele>195.1</ele>
        <time>2022-10-05T14:48:11.650Z</time>
      </trkpt>
      <trkpt lat="44.65464" lon="0.87454">
        <ele>193.6</ele>
        <time>2022-10-05T14:48:14.555Z</time>
      </trkpt>
      <trkpt lat="44.65508" lon="0.87295">
        <ele>190.6</ele>
        <time>2022-10-05T14:48:28.941Z</time>
      </trkpt>
      <trkpt lat="44.65517" lon="0.87268">
        <ele>189.4</ele>
        <time>2022-10-05T14:48:30.798Z</time>
      </trkpt>
      <trkpt lat="44.65537" lon="0.87224">
        <ele>186.7</ele>
        <time>2022-10-05T14:48:34.075Z</time>
      </trkpt>
      <trkpt lat="44.65574" lon="0.87177">
        <ele>183.7</ele>
        <time>2022-10-05T14:48:38.316Z</time>
      </trkpt>
      <trkpt lat="44.65588" lon="0.87154">
        <ele>182.3</ele>
        <time>2022-10-05T14:48:40.079Z</time>
      </trkpt>
      <trkpt lat="44.65591" lon="0.87149">
        <ele>181.8</ele>
        <time>2022-10-05T14:48:40.490Z</time>
      </trkpt>
      <trkpt lat="44.65607" lon="0.87176">
        <ele>180.4</ele>
        <time>2022-10-05T14:48:42.688Z</time>
      </trkpt>
      <trkpt lat="44.65625" lon="0.8723">
        <ele>178.9</ele>
        <time>2022-10-05T14:48:47.185Z</time>
      </trkpt>
      <trkpt lat="44.65669" lon="0.87292">
        <ele>180.7</ele>
        <time>2022-10-05T14:49:02.168Z</time>
      </trkpt>
      <trkpt lat="44.6573" lon="0.87324">
        <ele>172.2</ele>
        <time>2022-10-05T14:49:07.913Z</time>
      </trkpt>
      <trkpt lat="44.65757" lon="0.87331">
        <ele>169.3</ele>
        <time>2022-10-05T14:49:10.336Z</time>
      </trkpt>
      <trkpt lat="44.65769" lon="0.87337">
        <ele>167.9</ele>
        <time>2022-10-05T14:49:11.460Z</time>
      </trkpt>
      <trkpt lat="44.65773" lon="0.8736">
        <ele>167.5</ele>
        <time>2022-10-05T14:49:13.478Z</time>
      </trkpt>
      <trkpt lat="44.65768" lon="0.87384">
        <ele>167.2</ele>
        <time>2022-10-05T14:49:15.789Z</time>
      </trkpt>
      <trkpt lat="44.65777" lon="0.87403">
        <ele>167.1</ele>
        <time>2022-10-05T14:49:18.413Z</time>
      </trkpt>
      <trkpt lat="44.65818" lon="0.87449">
        <ele>162.6</ele>
        <time>2022-10-05T14:49:23.042Z</time>
      </trkpt>
      <trkpt lat="44.65836" lon="0.87452">
        <ele>159.7</ele>
        <time>2022-10-05T14:49:24.641Z</time>
      </trkpt>
      <trkpt lat="44.65891" lon="0.8745">
        <ele>156.8</ele>
        <time>2022-10-05T14:49:29.616Z</time>
      </trkpt>
      <trkpt lat="44.65914" lon="0.87438">
        <ele>154.9</ele>
        <time>2022-10-05T14:49:31.781Z</time>
      </trkpt>
      <trkpt lat="44.65927" lon="0.87437">
        <ele>154.1</ele>
        <time>2022-10-05T14:49:32.877Z</time>
      </trkpt>
      <trkpt lat="44.65945" lon="0.87446">
        <ele>152.8</ele>
        <time>2022-10-05T14:49:34.563Z</time>
      </trkpt>
      <trkpt lat="44.65983" lon="0.87486">
        <ele>147.5</ele>
        <time>2022-10-05T14:49:38.752Z</time>
      </trkpt>
      <trkpt lat="44.66038" lon="0.87517">
        <ele>141.9</ele>
        <time>2022-10-05T14:49:43.981Z</time>
      </trkpt>
      <trkpt lat="44.66075" lon="0.87535">
        <ele>135.6</ele>
        <time>2022-10-05T14:49:47.436Z</time>
      </trkpt>
      <trkpt lat="44.66085" lon="0.87526">
        <ele>135.4</ele>
        <time>2022-10-05T14:49:48.979Z</time>
      </trkpt>
      <trkpt lat="44.66097" lon="0.87518">
        <ele>136.1</ele>
        <time>2022-10-05T14:49:53.160Z</time>
      </trkpt>
      <trkpt lat="44.6611" lon="0.87513">
        <ele>135.3</ele>
        <time>2022-10-05T14:49:54.313Z</time>
      </trkpt>
      <trkpt lat="44.66125" lon="0.87515">
        <ele>133.4</ele>
        <time>2022-10-05T14:49:55.643Z</time>
      </trkpt>
      <trkpt lat="44.66153" lon="0.8754">
        <ele>131.9</ele>
        <time>2022-10-05T14:49:58.845Z</time>
      </trkpt>
      <trkpt lat="44.66168" lon="0.87545">
        <ele>131.6</ele>
        <time>2022-10-05T14:50:00.786Z</time>
      </trkpt>
      <trkpt lat="44.66183" lon="0.87547">
        <ele>131.9</ele>
        <time>2022-10-05T14:50:04.045Z</time>
      </trkpt>
      <trkpt lat="44.66242" lon="0.87536">
        <ele>130.9</ele>
        <time>2022-10-05T14:50:11.780Z</time>
      </trkpt>
      <trkpt lat="44.6626" lon="0.8753">
        <ele>130.9</ele>
        <time>2022-10-05T14:50:15.051Z</time>
      </trkpt>
      <trkpt lat="44.66274" lon="0.87518">
        <ele>130.6</ele>
        <time>2022-10-05T14:50:17.144Z</time>
      </trkpt>
      <trkpt lat="44.66289" lon="0.87503">
        <ele>130.1</ele>
        <time>2022-10-05T14:50:19.268Z</time>
        <extensions>
          <visugpx:TrkExtension xmlns:visugpx="https://www.visugpx.com/editgpx/">
            <visugpx:node>29</visugpx:node>
            </visugpx:TrkExtension>
        </extensions>
      </trkpt>
      <trkpt lat="44.66333" lon="0.87455">
        <ele>133.5</ele>
        <time>2022-10-05T14:50:37.834Z</time>
      </trkpt>
      <trkpt lat="44.66295" lon="0.87417">
        <ele>133.4</ele>
        <time>2022-10-05T14:50:45.819Z</time>
      </trkpt>
      <trkpt lat="44.66284" lon="0.87407">
        <ele>133.1</ele>
        <time>2022-10-05T14:50:47.403Z</time>
      </trkpt>
      <trkpt lat="44.66262" lon="0.87365">
        <ele>133.9</ele>
        <time>2022-10-05T14:50:55.579Z</time>
      </trkpt>
      <trkpt lat="44.66248" lon="0.8731">
        <ele>134.4</ele>
        <time>2022-10-05T14:51:03.838Z</time>
      </trkpt>
      <trkpt lat="44.66253" lon="0.87278">
        <ele>136.2</ele>
        <time>2022-10-05T14:51:12.609Z</time>
      </trkpt>
      <trkpt lat="44.66264" lon="0.87251">
        <ele>138.5</ele>
        <time>2022-10-05T14:51:23.192Z</time>
      </trkpt>
      <trkpt lat="44.6628" lon="0.87221">
        <ele>140.3</ele>
        <time>2022-10-05T14:51:32.507Z</time>
      </trkpt>
      <trkpt lat="44.66307" lon="0.87184">
        <ele>144.1</ele>
        <time>2022-10-05T14:51:49.981Z</time>
      </trkpt>
      <trkpt lat="44.66326" lon="0.87147">
        <ele>147.7</ele>
        <time>2022-10-05T14:52:06.684Z</time>
      </trkpt>
      <trkpt lat="44.66346" lon="0.87079">
        <ele>153.4</ele>
        <time>2022-10-05T14:52:33.042Z</time>
      </trkpt>
      <trkpt lat="44.6636" lon="0.87">
        <ele>159.8</ele>
        <time>2022-10-05T14:53:02.716Z</time>
      </trkpt>
      <trkpt lat="44.66369" lon="0.86958">
        <ele>160.6</ele>
        <time>2022-10-05T14:53:09.928Z</time>
      </trkpt>
      <trkpt lat="44.664" lon="0.86906">
        <ele>161</ele>
        <time>2022-10-05T14:53:19.163Z</time>
      </trkpt>
      <trkpt lat="44.66446" lon="0.86853">
        <ele>158.7</ele>
        <time>2022-10-05T14:53:25.266Z</time>
      </trkpt>
      <trkpt lat="44.66485" lon="0.86813">
        <ele>158.9</ele>
        <time>2022-10-05T14:53:34.140Z</time>
      </trkpt>
      <trkpt lat="44.66544" lon="0.86759">
        <ele>162.4</ele>
        <time>2022-10-05T14:53:55.870Z</time>
      </trkpt>
      <trkpt lat="44.66599" lon="0.86717">
        <ele>162.6</ele>
        <time>2022-10-05T14:54:07.272Z</time>
      </trkpt>
      <trkpt lat="44.6663" lon="0.8672">
        <ele>163.2</ele>
        <time>2022-10-05T14:54:13.948Z</time>
      </trkpt>
      <trkpt lat="44.66662" lon="0.8675">
        <ele>165.8</ele>
        <time>2022-10-05T14:54:27.392Z</time>
      </trkpt>
      <trkpt lat="44.66682" lon="0.86757">
        <ele>166.6</ele>
        <time>2022-10-05T14:54:33.048Z</time>
      </trkpt>
      <trkpt lat="44.66698" lon="0.86756">
        <ele>166.9</ele>
        <time>2022-10-05T14:54:36.467Z</time>
      </trkpt>
      <trkpt lat="44.66756" lon="0.86667">
        <ele>171.8</ele>
        <time>2022-10-05T14:55:04.305Z</time>
      </trkpt>
      <trkpt lat="44.66823" lon="0.86585">
        <ele>180</ele>
        <time>2022-10-05T14:55:42.310Z</time>
      </trkpt>
      <trkpt lat="44.66854" lon="0.86561">
        <ele>181.8</ele>
        <time>2022-10-05T14:55:53.316Z</time>
      </trkpt>
      <trkpt lat="44.66894" lon="0.86542">
        <ele>184.1</ele>
        <time>2022-10-05T14:56:06.766Z</time>
      </trkpt>
      <trkpt lat="44.66906" lon="0.86533">
        <ele>185.1</ele>
        <time>2022-10-05T14:56:11.738Z</time>
      </trkpt>
      <trkpt lat="44.66954" lon="0.86466">
        <ele>188.4</ele>
        <time>2022-10-05T14:56:32.489Z</time>
      </trkpt>
      <trkpt lat="44.66982" lon="0.8645">
        <ele>190.6</ele>
        <time>2022-10-05T14:56:43.476Z</time>
      </trkpt>
      <trkpt lat="44.66994" lon="0.86446">
        <ele>190.9</ele>
        <time>2022-10-05T14:56:46.282Z</time>
      </trkpt>
      <trkpt lat="44.67014" lon="0.86462">
        <ele>192.4</ele>
        <time>2022-10-05T14:56:54.184Z</time>
      </trkpt>
      <trkpt lat="44.67024" lon="0.86475">
        <ele>193.1</ele>
        <time>2022-10-05T14:56:58.434Z</time>
      </trkpt>
      <trkpt lat="44.67051" lon="0.86471">
        <ele>193.8</ele>
        <time>2022-10-05T14:57:04.720Z</time>
      </trkpt>
      <trkpt lat="44.6707" lon="0.86461">
        <ele>194.1</ele>
        <time>2022-10-05T14:57:08.870Z</time>
      </trkpt>
      <trkpt lat="44.67084" lon="0.86452">
        <ele>194.3</ele>
        <time>2022-10-05T14:57:11.960Z</time>
      </trkpt>
      <trkpt lat="44.67089" lon="0.86443">
        <ele>194.1</ele>
        <time>2022-10-05T14:57:12.924Z</time>
      </trkpt>
      <trkpt lat="44.67115" lon="0.86422">
        <ele>194.4</ele>
        <time>2022-10-05T14:57:18.762Z</time>
      </trkpt>
      <trkpt lat="44.67147" lon="0.86389">
        <ele>195.3</ele>
        <time>2022-10-05T14:57:27.620Z</time>
      </trkpt>
      <trkpt lat="44.67172" lon="0.86346">
        <ele>195.1</ele>
        <time>2022-10-05T14:57:34.102Z</time>
      </trkpt>
      <trkpt lat="44.6719" lon="0.86322">
        <ele>195.7</ele>
        <time>2022-10-05T14:57:39.737Z</time>
      </trkpt>
      <trkpt lat="44.67226" lon="0.86301">
        <ele>197.2</ele>
        <time>2022-10-05T14:57:50.383Z</time>
      </trkpt>
      <trkpt lat="44.67241" lon="0.86295">
        <ele>197.9</ele>
        <time>2022-10-05T14:57:55.049Z</time>
      </trkpt>
      <trkpt lat="44.67227" lon="0.86261">
        <ele>197.8</ele>
        <time>2022-10-05T14:57:59.733Z</time>
        <extensions>
          <visugpx:TrkExtension xmlns:visugpx="https://www.visugpx.com/editgpx/">
            <visugpx:node>30</visugpx:node>
            </visugpx:TrkExtension>
        </extensions>
      </trkpt>
      <trkpt lat="44.67224" lon="0.86253">
        <ele>198</ele>
        <time>2022-10-05T14:58:01.324Z</time>
      </trkpt>
      <trkpt lat="44.67178" lon="0.86154">
        <ele>197.6</ele>
        <time>2022-10-05T14:58:15.186Z</time>
      </trkpt>
      <trkpt lat="44.67137" lon="0.86073">
        <ele>196.3</ele>
        <time>2022-10-05T14:58:24.202Z</time>
      </trkpt>
      <trkpt lat="44.67098" lon="0.86022">
        <ele>197.5</ele>
        <time>2022-10-05T14:58:36.070Z</time>
      </trkpt>
      <trkpt lat="44.6706" lon="0.85978">
        <ele>195.5</ele>
        <time>2022-10-05T14:58:41.028Z</time>
      </trkpt>
      <trkpt lat="44.66948" lon="0.85888">
        <ele>195.2</ele>
        <time>2022-10-05T14:59:03.056Z</time>
      </trkpt>
      <trkpt lat="44.66946" lon="0.85886">
        <ele>195.4</ele>
        <time>2022-10-05T14:59:04.013Z</time>
      </trkpt>
      <trkpt lat="44.66946" lon="0.85866">
        <ele>197.5</ele>
        <time>2022-10-05T14:59:13.715Z</time>
      </trkpt>
      <trkpt lat="44.66947" lon="0.85804">
        <ele>202.3</ele>
        <time>2022-10-05T14:59:35.909Z</time>
      </trkpt>
      <trkpt lat="44.66917" lon="0.85624">
        <ele>199</ele>
        <time>2022-10-05T14:59:51.428Z</time>
      </trkpt>
      <trkpt lat="44.66903" lon="0.85522">
        <ele>197</ele>
        <time>2022-10-05T14:59:59.962Z</time>
      </trkpt>
      <trkpt lat="44.66891" lon="0.85361">
        <ele>194.2</ele>
        <time>2022-10-05T15:00:13.669Z</time>
      </trkpt>
      <trkpt lat="44.66887" lon="0.85296">
        <ele>198.1</ele>
        <time>2022-10-05T15:00:32.138Z</time>
      </trkpt>
      <trkpt lat="44.66884" lon="0.85254">
        <ele>201.2</ele>
        <time>2022-10-05T15:00:46.397Z</time>
      </trkpt>
      <trkpt lat="44.66881" lon="0.85234">
        <ele>203.1</ele>
        <time>2022-10-05T15:00:55.937Z</time>
      </trkpt>
      <trkpt lat="44.66869" lon="0.85208">
        <ele>205.2</ele>
        <time>2022-10-05T15:01:05.628Z</time>
      </trkpt>
      <trkpt lat="44.66853" lon="0.85183">
        <ele>206.6</ele>
        <time>2022-10-05T15:01:13.462Z</time>
      </trkpt>
      <trkpt lat="44.66812" lon="0.85124">
        <ele>208</ele>
        <time>2022-10-05T15:01:26.740Z</time>
      </trkpt>
      <trkpt lat="44.66793" lon="0.85095">
        <ele>207.3</ele>
        <time>2022-10-05T15:01:30.055Z</time>
      </trkpt>
      <trkpt lat="44.66757" lon="0.8503">
        <ele>203.6</ele>
        <time>2022-10-05T15:01:34.921Z</time>
      </trkpt>
      <trkpt lat="44.6674" lon="0.84982">
        <ele>202</ele>
        <time>2022-10-05T15:01:38.715Z</time>
      </trkpt>
      <trkpt lat="44.66725" lon="0.84894">
        <ele>199.1</ele>
        <time>2022-10-05T15:01:44.937Z</time>
      </trkpt>
      <trkpt lat="44.66694" lon="0.84757">
        <ele>199</ele>
        <time>2022-10-05T15:02:02.752Z</time>
      </trkpt>
      <trkpt lat="44.66671" lon="0.84633">
        <ele>200</ele>
        <time>2022-10-05T15:02:20.671Z</time>
      </trkpt>
      <trkpt lat="44.66663" lon="0.84574">
        <ele>200</ele>
        <time>2022-10-05T15:02:28.226Z</time>
      </trkpt>
      <trkpt lat="44.66642" lon="0.84346">
        <ele>199.5</ele>
        <time>2022-10-05T15:02:55.848Z</time>
      </trkpt>
      <trkpt lat="44.66632" lon="0.84246">
        <ele>194.9</ele>
        <time>2022-10-05T15:03:01.772Z</time>
      </trkpt>
      <trkpt lat="44.66627" lon="0.84235">
        <ele>194.5</ele>
        <time>2022-10-05T15:03:02.686Z</time>
      </trkpt>
      <trkpt lat="44.6663" lon="0.84234">
        <ele>194.4</ele>
        <time>2022-10-05T15:03:03.023Z</time>
      </trkpt>
      <trkpt lat="44.66638" lon="0.84229">
        <ele>194.2</ele>
        <time>2022-10-05T15:03:04.083Z</time>
      </trkpt>
      <trkpt lat="44.66696" lon="0.84217">
        <ele>193.8</ele>
        <time>2022-10-05T15:03:13.469Z</time>
      </trkpt>
      <trkpt lat="44.66716" lon="0.84211">
        <ele>193.6</ele>
        <time>2022-10-05T15:03:16.376Z</time>
      </trkpt>
      <trkpt lat="44.66764" lon="0.84215">
        <ele>191</ele>
        <time>2022-10-05T15:03:20.674Z</time>
      </trkpt>
      <trkpt lat="44.66801" lon="0.84233">
        <ele>188.4</ele>
        <time>2022-10-05T15:03:23.845Z</time>
      </trkpt>
      <trkpt lat="44.66883" lon="0.84286">
        <ele>182.4</ele>
        <time>2022-10-05T15:03:31.151Z</time>
      </trkpt>
      <trkpt lat="44.66999" lon="0.84364">
        <ele>181.2</ele>
        <time>2022-10-05T15:03:49.536Z</time>
        <extensions>
          <visugpx:TrkExtension xmlns:visugpx="https://www.visugpx.com/editgpx/">
            <visugpx:node>31</visugpx:node>
            </visugpx:TrkExtension>
        </extensions>
      </trkpt>
      <trkpt lat="44.67011" lon="0.84363">
        <ele>181.5</ele>
        <time>2022-10-05T15:03:52.292Z</time>
      </trkpt>
      <trkpt lat="44.67031" lon="0.84333">
        <ele>181.3</ele>
        <time>2022-10-05T15:03:56.973Z</time>
      </trkpt>
      <trkpt lat="44.67054" lon="0.84288">
        <ele>182.2</ele>
        <time>2022-10-05T15:04:05.786Z</time>
      </trkpt>
      <trkpt lat="44.67071" lon="0.84244">
        <ele>182</ele>
        <time>2022-10-05T15:04:11.585Z</time>
      </trkpt>
      <trkpt lat="44.67072" lon="0.84213">
        <ele>181.1</ele>
        <time>2022-10-05T15:04:13.805Z</time>
      </trkpt>
      <trkpt lat="44.67076" lon="0.84198">
        <ele>180.5</ele>
        <time>2022-10-05T15:04:14.835Z</time>
      </trkpt>
      <trkpt lat="44.67082" lon="0.84189">
        <ele>180.6</ele>
        <time>2022-10-05T15:04:16.567Z</time>
      </trkpt>
      <trkpt lat="44.67117" lon="0.8407">
        <ele>178.8</ele>
        <time>2022-10-05T15:04:28.070Z</time>
      </trkpt>
      <trkpt lat="44.67143" lon="0.84024">
        <ele>178.2</ele>
        <time>2022-10-05T15:04:33.668Z</time>
      </trkpt>
      <trkpt lat="44.67155" lon="0.83977">
        <ele>178.3</ele>
        <time>2022-10-05T15:04:40.114Z</time>
      </trkpt>
      <trkpt lat="44.67154" lon="0.83933">
        <ele>178.6</ele>
        <time>2022-10-05T15:04:46.184Z</time>
      </trkpt>
      <trkpt lat="44.67151" lon="0.83909">
        <ele>178.7</ele>
        <time>2022-10-05T15:04:49.419Z</time>
      </trkpt>
      <trkpt lat="44.67159" lon="0.83889">
        <ele>179.9</ele>
        <time>2022-10-05T15:04:55.386Z</time>
      </trkpt>
      <trkpt lat="44.67184" lon="0.83801">
        <ele>181.9</ele>
        <time>2022-10-05T15:05:11.753Z</time>
      </trkpt>
      <trkpt lat="44.67196" lon="0.83777">
        <ele>183.1</ele>
        <time>2022-10-05T15:05:18.539Z</time>
      </trkpt>
      <trkpt lat="44.67197" lon="0.83761">
        <ele>183.1</ele>
        <time>2022-10-05T15:05:20.559Z</time>
      </trkpt>
      <trkpt lat="44.67191" lon="0.83753">
        <ele>182.5</ele>
        <time>2022-10-05T15:05:21.288Z</time>
      </trkpt>
      <trkpt lat="44.67187" lon="0.83743">
        <ele>181.6</ele>
        <time>2022-10-05T15:05:22.008Z</time>
      </trkpt>
      <trkpt lat="44.67185" lon="0.83729">
        <ele>180.6</ele>
        <time>2022-10-05T15:05:22.905Z</time>
      </trkpt>
      <trkpt lat="44.67184" lon="0.8371">
        <ele>178.8</ele>
        <time>2022-10-05T15:05:24.100Z</time>
      </trkpt>
      <trkpt lat="44.67199" lon="0.83689">
        <ele>179.6</ele>
        <time>2022-10-05T15:05:29.826Z</time>
      </trkpt>
      <trkpt lat="44.67206" lon="0.83669">
        <ele>180.2</ele>
        <time>2022-10-05T15:05:34.117Z</time>
      </trkpt>
      <trkpt lat="44.67216" lon="0.83606">
        <ele>180.7</ele>
        <time>2022-10-05T15:05:43.135Z</time>
      </trkpt>
      <trkpt lat="44.67226" lon="0.83582">
        <ele>180.2</ele>
        <time>2022-10-05T15:05:45.465Z</time>
      </trkpt>
      <trkpt lat="44.67234" lon="0.83552">
        <ele>178.3</ele>
        <time>2022-10-05T15:05:47.476Z</time>
      </trkpt>
      <trkpt lat="44.6724" lon="0.83516">
        <ele>177.6</ele>
        <time>2022-10-05T15:05:50.528Z</time>
      </trkpt>
      <trkpt lat="44.67271" lon="0.83425">
        <ele>176.9</ele>
        <time>2022-10-05T15:06:00.730Z</time>
      </trkpt>
      <trkpt lat="44.67297" lon="0.83347">
        <ele>178</ele>
        <time>2022-10-05T15:06:13.696Z</time>
      </trkpt>
      <trkpt lat="44.67306" lon="0.83295">
        <ele>178.7</ele>
        <time>2022-10-05T15:06:21.791Z</time>
      </trkpt>
      <trkpt lat="44.67314" lon="0.8327">
        <ele>178.4</ele>
        <time>2022-10-05T15:06:24.369Z</time>
      </trkpt>
      <trkpt lat="44.67323" lon="0.83249">
        <ele>179</ele>
        <time>2022-10-05T15:06:28.872Z</time>
      </trkpt>
      <trkpt lat="44.67334" lon="0.83214">
        <ele>178.9</ele>
        <time>2022-10-05T15:06:33.428Z</time>
      </trkpt>
      <trkpt lat="44.6735" lon="0.83187">
        <ele>177.8</ele>
        <time>2022-10-05T15:06:35.867Z</time>
      </trkpt>
      <trkpt lat="44.67415" lon="0.83141">
        <ele>180</ele>
        <time>2022-10-05T15:06:53.665Z</time>
      </trkpt>
      <trkpt lat="44.67442" lon="0.83129">
        <ele>179.8</ele>
        <time>2022-10-05T15:06:58.183Z</time>
      </trkpt>
      <trkpt lat="44.67437" lon="0.83111">
        <ele>177.2</ele>
        <time>2022-10-05T15:06:59.396Z</time>
      </trkpt>
      <trkpt lat="44.67429" lon="0.83104">
        <ele>174.8</ele>
        <time>2022-10-05T15:07:00.228Z</time>
      </trkpt>
      <trkpt lat="44.67417" lon="0.83097">
        <ele>172</ele>
        <time>2022-10-05T15:07:01.374Z</time>
      </trkpt>
      <trkpt lat="44.67412" lon="0.83075">
        <ele>167.8</ele>
        <time>2022-10-05T15:07:02.823Z</time>
      </trkpt>
      <trkpt lat="44.67404" lon="0.83054">
        <ele>164.9</ele>
        <time>2022-10-05T15:07:04.319Z</time>
      </trkpt>
      <trkpt lat="44.67401" lon="0.83037">
        <ele>163.2</ele>
        <time>2022-10-05T15:07:05.418Z</time>
      </trkpt>
      <trkpt lat="44.67392" lon="0.83007">
        <ele>160</ele>
        <time>2022-10-05T15:07:07.461Z</time>
      </trkpt>
      <trkpt lat="44.67382" lon="0.82988">
        <ele>157.1</ele>
        <time>2022-10-05T15:07:08.945Z</time>
      </trkpt>
      <trkpt lat="44.67347" lon="0.82996">
        <ele>154.5</ele>
        <time>2022-10-05T15:07:12.074Z</time>
      </trkpt>
      <trkpt lat="44.67329" lon="0.8299">
        <ele>151.5</ele>
        <time>2022-10-05T15:07:13.706Z</time>
      </trkpt>
      <trkpt lat="44.67305" lon="0.82971">
        <ele>147.9</ele>
        <time>2022-10-05T15:07:16.137Z</time>
      </trkpt>
      <trkpt lat="44.6729" lon="0.82971">
        <ele>145.6</ele>
        <time>2022-10-05T15:07:17.461Z</time>
      </trkpt>
      <trkpt lat="44.6726" lon="0.8301">
        <ele>144.2</ele>
        <time>2022-10-05T15:07:21.839Z</time>
      </trkpt>
      <trkpt lat="44.67246" lon="0.83031">
        <ele>144.5</ele>
        <time>2022-10-05T15:07:26.020Z</time>
      </trkpt>
      <trkpt lat="44.67232" lon="0.83031">
        <ele>141.5</ele>
        <time>2022-10-05T15:07:27.256Z</time>
      </trkpt>
      <trkpt lat="44.67221" lon="0.83008">
        <ele>137.5</ele>
        <time>2022-10-05T15:07:28.995Z</time>
      </trkpt>
      <trkpt lat="44.67202" lon="0.82931">
        <ele>134.6</ele>
        <time>2022-10-05T15:07:34.357Z</time>
      </trkpt>
      <trkpt lat="44.67181" lon="0.82866">
        <ele>136.1</ele>
        <time>2022-10-05T15:07:46.667Z</time>
      </trkpt>
      <trkpt lat="44.67139" lon="0.82795">
        <ele>140.1</ele>
        <time>2022-10-05T15:08:08.539Z</time>
      </trkpt>
      <trkpt lat="44.67115" lon="0.82776">
        <ele>143.7</ele>
        <time>2022-10-05T15:08:26.615Z</time>
      </trkpt>
      <trkpt lat="44.67103" lon="0.82736">
        <ele>144.8</ele>
        <time>2022-10-05T15:08:34.720Z</time>
      </trkpt>
      <trkpt lat="44.67093" lon="0.8272">
        <ele>145.6</ele>
        <time>2022-10-05T15:08:39.492Z</time>
      </trkpt>
      <trkpt lat="44.67067" lon="0.82658">
        <ele>143.7</ele>
        <time>2022-10-05T15:08:44.825Z</time>
      </trkpt>
      <trkpt lat="44.67061" lon="0.82639">
        <ele>143</ele>
        <time>2022-10-05T15:08:46.225Z</time>
      </trkpt>
      <trkpt lat="44.67058" lon="0.82626">
        <ele>142.6</ele>
        <time>2022-10-05T15:08:47.199Z</time>
        <extensions>
          <visugpx:TrkExtension xmlns:visugpx="https://www.visugpx.com/editgpx/">
            <visugpx:node>32</visugpx:node>
            </visugpx:TrkExtension>
        </extensions>
      </trkpt>
      <trkpt lat="44.67034" lon="0.82571">
        <ele>140.6</ele>
        <time>2022-10-05T15:08:51.696Z</time>
      </trkpt>
      <trkpt lat="44.6702" lon="0.8248">
        <ele>141.3</ele>
        <time>2022-10-05T15:09:04.661Z</time>
      </trkpt>
      <trkpt lat="44.67001" lon="0.82443">
        <ele>141</ele>
        <time>2022-10-05T15:09:09.307Z</time>
      </trkpt>
      <trkpt lat="44.67032" lon="0.82358">
        <ele>139.8</ele>
        <time>2022-10-05T15:09:18.045Z</time>
      </trkpt>
      <trkpt lat="44.67039" lon="0.82336">
        <ele>139.1</ele>
        <time>2022-10-05T15:09:19.768Z</time>
      </trkpt>
      <trkpt lat="44.67055" lon="0.82313">
        <ele>136.8</ele>
        <time>2022-10-05T15:09:21.787Z</time>
      </trkpt>
      <trkpt lat="44.6711" lon="0.82161">
        <ele>124.6</ele>
        <time>2022-10-05T15:09:32.490Z</time>
      </trkpt>
      <trkpt lat="44.67135" lon="0.82096">
        <ele>118.1</ele>
        <time>2022-10-05T15:09:37.128Z</time>
      </trkpt>
      <trkpt lat="44.6714" lon="0.82061">
        <ele>116.2</ele>
        <time>2022-10-05T15:09:39.369Z</time>
        <extensions>
          <visugpx:TrkExtension xmlns:visugpx="https://www.visugpx.com/editgpx/">
            <visugpx:node>33</visugpx:node>
            </visugpx:TrkExtension>
        </extensions>
      </trkpt>
      <trkpt lat="44.6714" lon="0.82056">
        <ele>116</ele>
        <time>2022-10-05T15:09:39.681Z</time>
      </trkpt>
      <trkpt lat="44.67148" lon="0.82054">
        <ele>115.7</ele>
        <time>2022-10-05T15:09:40.529Z</time>
      </trkpt>
      <trkpt lat="44.67181" lon="0.82068">
        <ele>115.7</ele>
        <time>2022-10-05T15:09:46.625Z</time>
      </trkpt>
      <trkpt lat="44.67183" lon="0.82066">
        <ele>115.7</ele>
        <time>2022-10-05T15:09:47.059Z</time>
        <extensions>
          <visugpx:TrkExtension xmlns:visugpx="https://www.visugpx.com/editgpx/">
            <visugpx:node>34</visugpx:node>
            </visugpx:TrkExtension>
        </extensions>
      </trkpt>
      <trkpt lat="44.67185" lon="0.82064">
        <ele>115.8</ele>
        <time>2022-10-05T15:09:47.751Z</time>
      </trkpt>
      <trkpt lat="44.67188" lon="0.82045">
        <ele>116.1</ele>
        <time>2022-10-05T15:09:50.805Z</time>
      </trkpt>
      <trkpt lat="44.67172" lon="0.81977">
        <ele>117.2</ele>
        <time>2022-10-05T15:10:02.035Z</time>
      </trkpt>
      <trkpt lat="44.67144" lon="0.81907">
        <ele>115.7</ele>
        <time>2022-10-05T15:10:08.690Z</time>
      </trkpt>
      <trkpt lat="44.67139" lon="0.81878">
        <ele>116.4</ele>
        <time>2022-10-05T15:10:14.068Z</time>
      </trkpt>
      <trkpt lat="44.67121" lon="0.81824">
        <ele>116.2</ele>
        <time>2022-10-05T15:10:21.063Z</time>
      </trkpt>
      <trkpt lat="44.67115" lon="0.81787">
        <ele>115.7</ele>
        <time>2022-10-05T15:10:24.499Z</time>
      </trkpt>
      <trkpt lat="44.67109" lon="0.8163">
        <ele>114.9</ele>
        <time>2022-10-05T15:10:42.319Z</time>
      </trkpt>
      <trkpt lat="44.67124" lon="0.81528">
        <ele>117.9</ele>
        <time>2022-10-05T15:11:03.145Z</time>
      </trkpt>
      <trkpt lat="44.67123" lon="0.81479">
        <ele>117.5</ele>
        <time>2022-10-05T15:11:07.990Z</time>
      </trkpt>
      <trkpt lat="44.67114" lon="0.81404">
        <ele>116</ele>
        <time>2022-10-05T15:11:14.194Z</time>
      </trkpt>
      <trkpt lat="44.67099" lon="0.81313">
        <ele>117.1</ele>
        <time>2022-10-05T15:11:28.043Z</time>
      </trkpt>
      <trkpt lat="44.67093" lon="0.81254">
        <ele>116.1</ele>
        <time>2022-10-05T15:11:33.130Z</time>
      </trkpt>
      <trkpt lat="44.67096" lon="0.81191">
        <ele>115.8</ele>
        <time>2022-10-05T15:11:40.334Z</time>
      </trkpt>
      <trkpt lat="44.67125" lon="0.8109">
        <ele>115.9</ele>
        <time>2022-10-05T15:11:54.197Z</time>
      </trkpt>
      <trkpt lat="44.67144" lon="0.8104">
        <ele>115.4</ele>
        <time>2022-10-05T15:11:59.733Z</time>
      </trkpt>
      <trkpt lat="44.67165" lon="0.81007">
        <ele>115.4</ele>
        <time>2022-10-05T15:12:05.303Z</time>
      </trkpt>
      <trkpt lat="44.67171" lon="0.81004">
        <ele>115.6</ele>
        <time>2022-10-05T15:12:06.884Z</time>
        <extensions>
          <visugpx:TrkExtension xmlns:visugpx="https://www.visugpx.com/editgpx/">
            <visugpx:node>35</visugpx:node>
            </visugpx:TrkExtension>
        </extensions>
      </trkpt>
      <trkpt lat="44.67195" lon="0.8099">
        <ele>116.3</ele>
        <time>2022-10-05T15:12:12.984Z</time>
      </trkpt>
      <trkpt lat="44.67215" lon="0.80989">
        <ele>115.5</ele>
        <time>2022-10-05T15:12:15.012Z</time>
      </trkpt>
      <trkpt lat="44.6724" lon="0.81007">
        <ele>115.2</ele>
        <time>2022-10-05T15:12:18.957Z</time>
      </trkpt>
      <trkpt lat="44.67274" lon="0.81025">
        <ele>115</ele>
        <time>2022-10-05T15:12:24.882Z</time>
      </trkpt>
      <trkpt lat="44.67308" lon="0.8103">
        <ele>116</ele>
        <time>2022-10-05T15:12:33.141Z</time>
      </trkpt>
      <trkpt lat="44.67334" lon="0.8102">
        <ele>115.7</ele>
        <time>2022-10-05T15:12:36.904Z</time>
      </trkpt>
      <trkpt lat="44.67387" lon="0.80979">
        <ele>115.7</ele>
        <time>2022-10-05T15:12:47.602Z</time>
      </trkpt>
      <trkpt lat="44.67408" lon="0.80978">
        <ele>115.8</ele>
        <time>2022-10-05T15:12:51.487Z</time>
      </trkpt>
      <trkpt lat="44.67463" lon="0.80981">
        <ele>115.5</ele>
        <time>2022-10-05T15:13:00.471Z</time>
      </trkpt>
      <trkpt lat="44.6751" lon="0.8099">
        <ele>115.5</ele>
        <time>2022-10-05T15:13:08.859Z</time>
      </trkpt>
      <trkpt lat="44.67534" lon="0.80988">
        <ele>115.2</ele>
        <time>2022-10-05T15:13:12.158Z</time>
      </trkpt>
      <trkpt lat="44.67544" lon="0.80979">
        <ele>114.9</ele>
        <time>2022-10-05T15:13:13.557Z</time>
      </trkpt>
      <trkpt lat="44.67553" lon="0.80964">
        <ele>114.9</ele>
        <time>2022-10-05T15:13:16.025Z</time>
        <extensions>
          <visugpx:TrkExtension xmlns:visugpx="https://www.visugpx.com/editgpx/">
            <visugpx:node>36</visugpx:node>
            </visugpx:TrkExtension>
        </extensions>
      </trkpt>
      <trkpt lat="44.67556" lon="0.8096">
        <ele>115</ele>
        <time>2022-10-05T15:13:16.964Z</time>
      </trkpt>
      <trkpt lat="44.67556" lon="0.80943">
        <ele>115.1</ele>
        <time>2022-10-05T15:13:19.277Z</time>
      </trkpt>
      <trkpt lat="44.6754" lon="0.80921">
        <ele>115.3</ele>
        <time>2022-10-05T15:13:23.587Z</time>
      </trkpt>
      <trkpt lat="44.67462" lon="0.80868">
        <ele>115.2</ele>
        <time>2022-10-05T15:13:38.641Z</time>
      </trkpt>
      <trkpt lat="44.6743" lon="0.80852">
        <ele>116</ele>
        <time>2022-10-05T15:13:46.300Z</time>
      </trkpt>
      <trkpt lat="44.67391" lon="0.80842">
        <ele>116.1</ele>
        <time>2022-10-05T15:13:53.477Z</time>
      </trkpt>
      <trkpt lat="44.67348" lon="0.80835">
        <ele>115.4</ele>
        <time>2022-10-05T15:13:59.146Z</time>
      </trkpt>
      <trkpt lat="44.67322" lon="0.8082">
        <ele>115.7</ele>
        <time>2022-10-05T15:14:04.655Z</time>
      </trkpt>
      <trkpt lat="44.67313" lon="0.80778">
        <ele>115.9</ele>
        <time>2022-10-05T15:14:10.516Z</time>
      </trkpt>
      <trkpt lat="44.6731" lon="0.80749">
        <ele>114.9</ele>
        <time>2022-10-05T15:14:12.479Z</time>
      </trkpt>
      <trkpt lat="44.67324" lon="0.80713">
        <ele>116.2</ele>
        <time>2022-10-05T15:14:21.191Z</time>
      </trkpt>
      <trkpt lat="44.6736" lon="0.80645">
        <ele>116.1</ele>
        <time>2022-10-05T15:14:31.588Z</time>
      </trkpt>
      <trkpt lat="44.67362" lon="0.8063">
        <ele>116.1</ele>
        <time>2022-10-05T15:14:33.507Z</time>
      </trkpt>
      <trkpt lat="44.67351" lon="0.8059">
        <ele>116.2</ele>
        <time>2022-10-05T15:14:39.068Z</time>
      </trkpt>
      <trkpt lat="44.67351" lon="0.80561">
        <ele>116.5</ele>
        <time>2022-10-05T15:14:43.276Z</time>
      </trkpt>
      <trkpt lat="44.67374" lon="0.80509">
        <ele>122.5</ele>
        <time>2022-10-05T15:15:12.981Z</time>
      </trkpt>
      <trkpt lat="44.6738" lon="0.80473">
        <ele>124.7</ele>
        <time>2022-10-05T15:15:23.413Z</time>
      </trkpt>
      <trkpt lat="44.67393" lon="0.80455">
        <ele>126.1</ele>
        <time>2022-10-05T15:15:30.253Z</time>
      </trkpt>
      <trkpt lat="44.6744" lon="0.80442">
        <ele>129.7</ele>
        <time>2022-10-05T15:15:47.989Z</time>
      </trkpt>
      <trkpt lat="44.67533" lon="0.80423">
        <ele>131.6</ele>
        <time>2022-10-05T15:16:08.386Z</time>
      </trkpt>
      <trkpt lat="44.67549" lon="0.8041">
        <ele>131.3</ele>
        <time>2022-10-05T15:16:10.804Z</time>
      </trkpt>
      <trkpt lat="44.6755" lon="0.80404">
        <ele>130.9</ele>
        <time>2022-10-05T15:16:11.191Z</time>
        <extensions>
          <visugpx:TrkExtension xmlns:visugpx="https://www.visugpx.com/editgpx/">
            <visugpx:node>37</visugpx:node>
            </visugpx:TrkExtension>
        </extensions>
      </trkpt>
      <trkpt lat="44.67554" lon="0.80384">
        <ele>129.8</ele>
        <time>2022-10-05T15:16:12.495Z</time>
      </trkpt>
      <trkpt lat="44.67551" lon="0.80346">
        <ele>128.5</ele>
        <time>2022-10-05T15:16:15.059Z</time>
      </trkpt>
      <trkpt lat="44.67535" lon="0.80301">
        <ele>125.8</ele>
        <time>2022-10-05T15:16:18.217Z</time>
      </trkpt>
      <trkpt lat="44.67501" lon="0.80257">
        <ele>119.5</ele>
        <time>2022-10-05T15:16:22.294Z</time>
      </trkpt>
      <trkpt lat="44.67487" lon="0.80229">
        <ele>116.7</ele>
        <time>2022-10-05T15:16:24.442Z</time>
      </trkpt>
      <trkpt lat="44.6747" lon="0.80202">
        <ele>114.9</ele>
        <time>2022-10-05T15:16:26.705Z</time>
      </trkpt>
      <trkpt lat="44.67471" lon="0.80175">
        <ele>115</ele>
        <time>2022-10-05T15:16:30.276Z</time>
      </trkpt>
      <trkpt lat="44.67466" lon="0.80144">
        <ele>115.6</ele>
        <time>2022-10-05T15:16:35.557Z</time>
      </trkpt>
      <trkpt lat="44.67427" lon="0.80107">
        <ele>116.9</ele>
        <time>2022-10-05T15:16:46.697Z</time>
      </trkpt>
      <trkpt lat="44.6738" lon="0.80079">
        <ele>115.7</ele>
        <time>2022-10-05T15:16:52.830Z</time>
      </trkpt>
      <trkpt lat="44.67346" lon="0.80003">
        <ele>116.5</ele>
        <time>2022-10-05T15:17:05.586Z</time>
      </trkpt>
      <trkpt lat="44.6734" lon="0.79975">
        <ele>116.6</ele>
        <time>2022-10-05T15:17:09.433Z</time>
      </trkpt>
      <trkpt lat="44.67344" lon="0.79947">
        <ele>116.4</ele>
        <time>2022-10-05T15:17:12.317Z</time>
      </trkpt>
      <trkpt lat="44.67359" lon="0.79924">
        <ele>116.1</ele>
        <time>2022-10-05T15:17:15.321Z</time>
      </trkpt>
      <trkpt lat="44.6738" lon="0.79908">
        <ele>116.5</ele>
        <time>2022-10-05T15:17:20.311Z</time>
      </trkpt>
      <trkpt lat="44.67387" lon="0.79886">
        <ele>115.9</ele>
        <time>2022-10-05T15:17:22.134Z</time>
      </trkpt>
      <trkpt lat="44.67385" lon="0.79866">
        <ele>115.7</ele>
        <time>2022-10-05T15:17:24.068Z</time>
      </trkpt>
      <trkpt lat="44.67377" lon="0.79854">
        <ele>115.7</ele>
        <time>2022-10-05T15:17:26.137Z</time>
        <extensions>
          <visugpx:TrkExtension xmlns:visugpx="https://www.visugpx.com/editgpx/">
            <visugpx:node>38</visugpx:node>
            </visugpx:TrkExtension>
        </extensions>
      </trkpt>
      <trkpt lat="44.67373" lon="0.79847">
        <ele>115.9</ele>
        <time>2022-10-05T15:17:27.720Z</time>
      </trkpt>
      <trkpt lat="44.67356" lon="0.79841">
        <ele>115.6</ele>
        <time>2022-10-05T15:17:29.990Z</time>
      </trkpt>
      <trkpt lat="44.67334" lon="0.79842">
        <ele>116</ele>
        <time>2022-10-05T15:17:34.660Z</time>
      </trkpt>
      <trkpt lat="44.67306" lon="0.7983">
        <ele>115.5</ele>
        <time>2022-10-05T15:17:38.451Z</time>
      </trkpt>
      <trkpt lat="44.6729" lon="0.79806">
        <ele>116.2</ele>
        <time>2022-10-05T15:17:44.151Z</time>
      </trkpt>
      <trkpt lat="44.67281" lon="0.79779">
        <ele>116.6</ele>
        <time>2022-10-05T15:17:48.684Z</time>
        <extensions>
          <visugpx:TrkExtension xmlns:visugpx="https://www.visugpx.com/editgpx/">
            <visugpx:node>39</visugpx:node>
            </visugpx:TrkExtension>
        </extensions>
      </trkpt>
      <trkpt lat="44.6726" lon="0.7971">
        <ele>116.4</ele>
        <time>2022-10-05T15:17:57.611Z</time>
      </trkpt>
      <trkpt lat="44.67244" lon="0.79669">
        <ele>116.2</ele>
        <time>2022-10-05T15:18:02.996Z</time>
      </trkpt>
      <trkpt lat="44.67215" lon="0.79624">
        <ele>117.5</ele>
        <time>2022-10-05T15:18:13.541Z</time>
      </trkpt>
      <trkpt lat="44.67192" lon="0.79608">
        <ele>117</ele>
        <time>2022-10-05T15:18:16.771Z</time>
        <extensions>
          <visugpx:TrkExtension xmlns:visugpx="https://www.visugpx.com/editgpx/">
            <visugpx:node>40</visugpx:node>
            </visugpx:TrkExtension>
        </extensions>
      </trkpt>
      <trkpt lat="44.67178" lon="0.79599">
        <ele>115.2</ele>
        <time>2022-10-05T15:18:18.129Z</time>
      </trkpt>
      <trkpt lat="44.6712" lon="0.79565">
        <ele>108.5</ele>
        <time>2022-10-05T15:18:23.675Z</time>
      </trkpt>
      <trkpt lat="44.6711" lon="0.79549">
        <ele>109.5</ele>
        <time>2022-10-05T15:18:28.908Z</time>
      </trkpt>
      <trkpt lat="44.67104" lon="0.79517">
        <ele>110.7</ele>
        <time>2022-10-05T15:18:36.233Z</time>
      </trkpt>
      <trkpt lat="44.67105" lon="0.79512">
        <ele>111.2</ele>
        <time>2022-10-05T15:18:38.753Z</time>
      </trkpt>
      <trkpt lat="44.67109" lon="0.79485">
        <ele>113.6</ele>
        <time>2022-10-05T15:18:50.287Z</time>
      </trkpt>
      <trkpt lat="44.67111" lon="0.79478">
        <ele>114.6</ele>
        <time>2022-10-05T15:18:53.946Z</time>
        <extensions>
          <visugpx:TrkExtension xmlns:visugpx="https://www.visugpx.com/editgpx/">
            <visugpx:node>41</visugpx:node>
            </visugpx:TrkExtension>
        </extensions>
      </trkpt>
      <trkpt lat="44.67113" lon="0.79474">
        <ele>115.3</ele>
        <time>2022-10-05T15:18:56.318Z</time>
      </trkpt>
      <trkpt lat="44.67021" lon="0.79301">
        <ele>108.4</ele>
        <time>2022-10-05T15:19:11.190Z</time>
      </trkpt>
      <trkpt lat="44.66883" lon="0.79027">
        <ele>101.6</ele>
        <time>2022-10-05T15:19:38.358Z</time>
        <extensions>
          <visugpx:TrkExtension xmlns:visugpx="https://www.visugpx.com/editgpx/">
            <visugpx:node>42</visugpx:node>
            </visugpx:TrkExtension>
        </extensions>
      </trkpt>
      <trkpt lat="44.66881" lon="0.79022">
        <ele>101.3</ele>
        <extensions>
          <visugpx:TrkExtension xmlns:visugpx="https://www.visugpx.com/editgpx/">
            <visugpx:node>43</visugpx:node>
            </visugpx:TrkExtension>
        </extensions>
      </trkpt>
      <trkpt lat="44.6674" lon="0.78739">
        <ele>99.6</ele>
      </trkpt>
      <trkpt lat="44.66716" lon="0.7869">
        <ele>98.8</ele>
      </trkpt>
      <trkpt lat="44.66699" lon="0.78662">
        <ele>98.4</ele>
      </trkpt>
      <trkpt lat="44.66685" lon="0.78649">
        <ele>98.4</ele>
      </trkpt>
      <trkpt lat="44.66666" lon="0.78638">
        <ele>98</ele>
      </trkpt>
      <trkpt lat="44.66621" lon="0.78626">
        <ele>98</ele>
      </trkpt>
      <trkpt lat="44.66585" lon="0.78619">
        <ele>97.3</ele>
      </trkpt>
      <trkpt lat="44.66573" lon="0.78616">
        <ele>97.8</ele>
      </trkpt>
      <trkpt lat="44.66522" lon="0.78606">
        <ele>98</ele>
      </trkpt>
      <trkpt lat="44.66385" lon="0.78557">
        <ele>100.1</ele>
      </trkpt>
      <trkpt lat="44.66372" lon="0.78568">
        <ele>100.9</ele>
      </trkpt>
      <trkpt lat="44.66328" lon="0.78571">
        <ele>104.2</ele>
      </trkpt>
      <trkpt lat="44.6622" lon="0.78552">
        <ele>113</ele>
      </trkpt>
      <trkpt lat="44.66043" lon="0.78507">
        <ele>113.1</ele>
      </trkpt>
      <trkpt lat="44.65933" lon="0.78556">
        <ele>112.6</ele>
      </trkpt>
      <trkpt lat="44.65904" lon="0.7857">
        <ele>112.1</ele>
      </trkpt>
      <trkpt lat="44.6584" lon="0.78611">
        <ele>110.2</ele>
      </trkpt>
      <trkpt lat="44.65794" lon="0.78664">
        <ele>109.2</ele>
      </trkpt>
      <trkpt lat="44.65724" lon="0.78721">
        <ele>109</ele>
      </trkpt>
      <trkpt lat="44.65621" lon="0.78759">
        <ele>108.1</ele>
      </trkpt>
      <trkpt lat="44.65514" lon="0.78831">
        <ele>107</ele>
      </trkpt>
      <trkpt lat="44.65439" lon="0.7884">
        <ele>106</ele>
      </trkpt>
      <trkpt lat="44.65375" lon="0.78852">
        <ele>104.2</ele>
      </trkpt>
      <trkpt lat="44.65231" lon="0.78956">
        <ele>97.2</ele>
      </trkpt>
      <trkpt lat="44.64992" lon="0.79082">
        <ele>96</ele>
      </trkpt>
      <trkpt lat="44.64973" lon="0.79079">
        <ele>96</ele>
      </trkpt>
      <trkpt lat="44.6496" lon="0.79072">
        <ele>96.7</ele>
      </trkpt>
      <trkpt lat="44.6493" lon="0.79032">
        <ele>96.1</ele>
      </trkpt>
      <trkpt lat="44.64917" lon="0.79032">
        <ele>96</ele>
      </trkpt>
      <trkpt lat="44.64905" lon="0.79034">
        <ele>97.3</ele>
      </trkpt>
      <trkpt lat="44.64896" lon="0.79045">
        <ele>98.2</ele>
      </trkpt>
      <trkpt lat="44.6489" lon="0.7906">
        <ele>99.1</ele>
      </trkpt>
      <trkpt lat="44.64882" lon="0.79129">
        <ele>99.9</ele>
      </trkpt>
      <trkpt lat="44.64877" lon="0.79152">
        <ele>99.7</ele>
      </trkpt>
      <trkpt lat="44.64868" lon="0.79173">
        <ele>99.6</ele>
      </trkpt>
      <trkpt lat="44.6474" lon="0.79386">
        <ele>102.6</ele>
      </trkpt>
      <trkpt lat="44.64689" lon="0.79427">
        <ele>113</ele>
      </trkpt>
      <trkpt lat="44.64628" lon="0.79468">
        <ele>120.4</ele>
      </trkpt>
      <trkpt lat="44.64566" lon="0.7954">
        <ele>120.1</ele>
      </trkpt>
      <trkpt lat="44.64503" lon="0.79595">
        <ele>120.8</ele>
      </trkpt>
      <trkpt lat="44.64432" lon="0.79673">
        <ele>124.2</ele>
      </trkpt>
      <trkpt lat="44.64382" lon="0.79754">
        <ele>125.1</ele>
      </trkpt>
      <trkpt lat="44.64362" lon="0.79779">
        <ele>126</ele>
      </trkpt>
      <trkpt lat="44.64342" lon="0.79795">
        <ele>127.3</ele>
        <extensions>
          <visugpx:TrkExtension xmlns:visugpx="https://www.visugpx.com/editgpx/">
            <visugpx:node>44</visugpx:node>
            </visugpx:TrkExtension>
        </extensions>
      </trkpt>
      <trkpt lat="44.64344" lon="0.79845">
        <ele>125.2</ele>
      </trkpt>
      <trkpt lat="44.6435" lon="0.80003">
        <ele>127.4</ele>
      </trkpt>
      <trkpt lat="44.64361" lon="0.80094">
        <ele>129.4</ele>
      </trkpt>
      <trkpt lat="44.64366" lon="0.80128">
        <ele>129.8</ele>
      </trkpt>
      <trkpt lat="44.64428" lon="0.80126">
        <ele>127.3</ele>
      </trkpt>
      <trkpt lat="44.64443" lon="0.80128">
        <ele>127.6</ele>
      </trkpt>
      <trkpt lat="44.64475" lon="0.8017">
        <ele>130</ele>
      </trkpt>
      <trkpt lat="44.64509" lon="0.80221">
        <ele>131</ele>
      </trkpt>
      <trkpt lat="44.64528" lon="0.80261">
        <ele>132.4</ele>
      </trkpt>
      <trkpt lat="44.64541" lon="0.80274">
        <ele>132.5</ele>
      </trkpt>
      <trkpt lat="44.6454" lon="0.80281">
        <ele>132.6</ele>
      </trkpt>
      <trkpt lat="44.64558" lon="0.80317">
        <ele>132.5</ele>
      </trkpt>
      <trkpt lat="44.64563" lon="0.80329">
        <ele>131.9</ele>
      </trkpt>
      <trkpt lat="44.64586" lon="0.80365">
        <ele>128.8</ele>
      </trkpt>
      <trkpt lat="44.64578" lon="0.80386">
        <ele>129.2</ele>
      </trkpt>
      <trkpt lat="44.64565" lon="0.80444">
        <ele>133.6</ele>
      </trkpt>
      <trkpt lat="44.64543" lon="0.80525">
        <ele>135.5</ele>
      </trkpt>
      <trkpt lat="44.64525" lon="0.80628">
        <ele>139.7</ele>
      </trkpt>
      <trkpt lat="44.64515" lon="0.80645">
        <ele>140.8</ele>
      </trkpt>
      <trkpt lat="44.64482" lon="0.80824">
        <ele>157.9</ele>
      </trkpt>
      <trkpt lat="44.64484" lon="0.80834">
        <ele>159.5</ele>
        <extensions>
          <visugpx:TrkExtension xmlns:visugpx="https://www.visugpx.com/editgpx/">
            <visugpx:node>45</visugpx:node>
            </visugpx:TrkExtension>
        </extensions>
      </trkpt>
      <trkpt lat="44.64488" lon="0.80853">
        <ele>162</ele>
      </trkpt>
      <trkpt lat="44.6448" lon="0.80888">
        <ele>165.5</ele>
      </trkpt>
      <trkpt lat="44.64465" lon="0.80997">
        <ele>167.5</ele>
      </trkpt>
      <trkpt lat="44.64453" lon="0.81006">
        <ele>166.5</ele>
      </trkpt>
      <trkpt lat="44.64419" lon="0.8114">
        <ele>163.3</ele>
      </trkpt>
      <trkpt lat="44.64407" lon="0.81198">
        <ele>163.9</ele>
      </trkpt>
      <trkpt lat="44.64394" lon="0.81231">
        <ele>161.6</ele>
      </trkpt>
      <trkpt lat="44.64378" lon="0.81258">
        <ele>158.9</ele>
      </trkpt>
      <trkpt lat="44.64352" lon="0.81305">
        <ele>158</ele>
      </trkpt>
      <trkpt lat="44.64348" lon="0.81315">
        <ele>158.4</ele>
        <extensions>
          <visugpx:TrkExtension xmlns:visugpx="https://www.visugpx.com/editgpx/">
            <visugpx:node>46</visugpx:node>
            </visugpx:TrkExtension>
        </extensions>
      </trkpt>
      <trkpt lat="44.64344" lon="0.81325">
        <ele>158.8</ele>
      </trkpt>
      <trkpt lat="44.64326" lon="0.81371">
        <ele>159</ele>
      </trkpt>
      <trkpt lat="44.64265" lon="0.81479">
        <ele>159.3</ele>
      </trkpt>
      <trkpt lat="44.64198" lon="0.81587">
        <ele>162.5</ele>
      </trkpt>
      <trkpt lat="44.64121" lon="0.81697">
        <ele>159.5</ele>
      </trkpt>
      <trkpt lat="44.64064" lon="0.8181">
        <ele>156.8</ele>
      </trkpt>
      <trkpt lat="44.6402" lon="0.81904">
        <ele>157.5</ele>
      </trkpt>
      <trkpt lat="44.63986" lon="0.81948">
        <ele>157.9</ele>
      </trkpt>
      <trkpt lat="44.63952" lon="0.82054">
        <ele>159.1</ele>
      </trkpt>
      <trkpt lat="44.63936" lon="0.82093">
        <ele>161.9</ele>
      </trkpt>
      <trkpt lat="44.63922" lon="0.82159">
        <ele>163.6</ele>
      </trkpt>
      <trkpt lat="44.6391" lon="0.82254">
        <ele>162.4</ele>
      </trkpt>
      <trkpt lat="44.639" lon="0.82301">
        <ele>161.4</ele>
      </trkpt>
      <trkpt lat="44.63891" lon="0.82317">
        <ele>160.7</ele>
      </trkpt>
      <trkpt lat="44.6389" lon="0.82302">
        <ele>161</ele>
        <extensions>
          <visugpx:TrkExtension xmlns:visugpx="https://www.visugpx.com/editgpx/">
            <visugpx:node>47</visugpx:node>
            </visugpx:TrkExtension>
        </extensions>
      </trkpt>
      <trkpt lat="44.63891" lon="0.82317">
        <ele>160.7</ele>
      </trkpt>
      <trkpt lat="44.63895" lon="0.82353">
        <ele>159.7</ele>
      </trkpt>
      <trkpt lat="44.63907" lon="0.82465">
        <ele>164.4</ele>
      </trkpt>
      <trkpt lat="44.6391" lon="0.82481">
        <ele>165.4</ele>
      </trkpt>
      <trkpt lat="44.63912" lon="0.82489">
        <ele>166</ele>
      </trkpt>
      <trkpt lat="44.63925" lon="0.82548">
        <ele>165.8</ele>
      </trkpt>
      <trkpt lat="44.63939" lon="0.82621">
        <ele>167</ele>
      </trkpt>
      <trkpt lat="44.6394" lon="0.82627">
        <ele>167.3</ele>
      </trkpt>
      <trkpt lat="44.63967" lon="0.82912">
        <ele>180.4</ele>
      </trkpt>
      <trkpt lat="44.63973" lon="0.83019">
        <ele>184</ele>
      </trkpt>
      <trkpt lat="44.63972" lon="0.83032">
        <ele>184.3</ele>
      </trkpt>
      <trkpt lat="44.63956" lon="0.83089">
        <ele>186.5</ele>
      </trkpt>
      <trkpt lat="44.63916" lon="0.83212">
        <ele>188.6</ele>
      </trkpt>
      <trkpt lat="44.63881" lon="0.83291">
        <ele>189.1</ele>
      </trkpt>
      <trkpt lat="44.63872" lon="0.83306">
        <ele>189.6</ele>
      </trkpt>
      <trkpt lat="44.63862" lon="0.83328">
        <ele>190</ele>
        <extensions>
          <visugpx:TrkExtension xmlns:visugpx="https://www.visugpx.com/editgpx/">
            <visugpx:node>48</visugpx:node>
            </visugpx:TrkExtension>
        </extensions>
      </trkpt>
      <trkpt lat="44.63858" lon="0.83338">
        <ele>190.3</ele>
      </trkpt>
      <trkpt lat="44.63813" lon="0.83409">
        <ele>191.9</ele>
      </trkpt>
      <trkpt lat="44.63747" lon="0.83599">
        <ele>193.7</ele>
      </trkpt>
      <trkpt lat="44.6373" lon="0.83639">
        <ele>194.4</ele>
      </trkpt>
      <trkpt lat="44.63692" lon="0.83678">
        <ele>194.9</ele>
      </trkpt>
      <trkpt lat="44.63611" lon="0.83752">
        <ele>192.9</ele>
      </trkpt>
      <trkpt lat="44.63586" lon="0.83782">
        <ele>192.7</ele>
      </trkpt>
      <trkpt lat="44.63568" lon="0.83823">
        <ele>191.6</ele>
        <extensions>
          <visugpx:TrkExtension xmlns:visugpx="https://www.visugpx.com/editgpx/">
            <visugpx:node>49</visugpx:node>
            </visugpx:TrkExtension>
        </extensions>
      </trkpt>
      <trkpt lat="44.63554" lon="0.83856">
        <ele>191</ele>
      </trkpt>
      <trkpt lat="44.63549" lon="0.83794">
        <ele>193.2</ele>
      </trkpt>
      <trkpt lat="44.63534" lon="0.83623">
        <ele>197.2</ele>
      </trkpt>
      <trkpt lat="44.63552" lon="0.83462">
        <ele>189.4</ele>
      </trkpt>
      <trkpt lat="44.63549" lon="0.83374">
        <ele>187.4</ele>
      </trkpt>
      <trkpt lat="44.6352" lon="0.83232">
        <ele>181.1</ele>
      </trkpt>
      <trkpt lat="44.6342" lon="0.83045">
        <ele>171.6</ele>
      </trkpt>
      <trkpt lat="44.63386" lon="0.82962">
        <ele>170.9</ele>
      </trkpt>
      <trkpt lat="44.63356" lon="0.82889">
        <ele>170</ele>
      </trkpt>
      <trkpt lat="44.63168" lon="0.82628">
        <ele>168.6</ele>
      </trkpt>
      <trkpt lat="44.63121" lon="0.82529">
        <ele>168.4</ele>
      </trkpt>
      <trkpt lat="44.63043" lon="0.82269">
        <ele>162.9</ele>
        <extensions>
          <visugpx:TrkExtension xmlns:visugpx="https://www.visugpx.com/editgpx/">
            <visugpx:node>50</visugpx:node>
            </visugpx:TrkExtension>
        </extensions>
      </trkpt>
      <trkpt lat="44.63042" lon="0.82264">
        <ele>162.8</ele>
      </trkpt>
      <trkpt lat="44.62978" lon="0.82118">
        <ele>159.6</ele>
      </trkpt>
      <trkpt lat="44.62935" lon="0.82031">
        <ele>160.6</ele>
      </trkpt>
      <trkpt lat="44.62931" lon="0.82024">
        <ele>160.5</ele>
      </trkpt>
      <trkpt lat="44.62868" lon="0.81923">
        <ele>161</ele>
      </trkpt>
      <trkpt lat="44.62802" lon="0.81826">
        <ele>162.3</ele>
      </trkpt>
      <trkpt lat="44.62704" lon="0.81711">
        <ele>164.7</ele>
      </trkpt>
      <trkpt lat="44.62694" lon="0.81681">
        <ele>165.5</ele>
      </trkpt>
      <trkpt lat="44.62648" lon="0.81543">
        <ele>165</ele>
      </trkpt>
      <trkpt lat="44.62625" lon="0.81488">
        <ele>164</ele>
      </trkpt>
      <trkpt lat="44.62592" lon="0.81441">
        <ele>162.6</ele>
      </trkpt>
      <trkpt lat="44.6251" lon="0.81319">
        <ele>162</ele>
        <extensions>
          <visugpx:TrkExtension xmlns:visugpx="https://www.visugpx.com/editgpx/">
            <visugpx:node>51</visugpx:node>
            </visugpx:TrkExtension>
        </extensions>
      </trkpt>
      <trkpt lat="44.62497" lon="0.813">
        <ele>162</ele>
      </trkpt>
      <trkpt lat="44.62476" lon="0.81251">
        <ele>162.9</ele>
      </trkpt>
      <trkpt lat="44.62459" lon="0.81174">
        <ele>162.5</ele>
      </trkpt>
      <trkpt lat="44.62447" lon="0.81006">
        <ele>163.9</ele>
      </trkpt>
      <trkpt lat="44.62451" lon="0.80897">
        <ele>165.5</ele>
      </trkpt>
      <trkpt lat="44.62459" lon="0.8082">
        <ele>167.7</ele>
      </trkpt>
      <trkpt lat="44.62443" lon="0.80735">
        <ele>170</ele>
      </trkpt>
      <trkpt lat="44.62443" lon="0.8069">
        <ele>170</ele>
        <extensions>
          <visugpx:TrkExtension xmlns:visugpx="https://www.visugpx.com/editgpx/">
            <visugpx:node>52</visugpx:node>
            </visugpx:TrkExtension>
        </extensions>
      </trkpt>
      <trkpt lat="44.6243" lon="0.80576">
        <ele>168.4</ele>
        <extensions>
          <visugpx:TrkExtension xmlns:visugpx="https://www.visugpx.com/editgpx/">
            <visugpx:node>53</visugpx:node>
            </visugpx:TrkExtension>
        </extensions>
      </trkpt>
    </trkseg>
  </trk>
</gpx>